THY735 VRMM-LTFM
Flight info
| Callsign | THY735 |
|---|---|
| Flight time | 7h 41m |
| Altitude | 38000 |
| Route | LELEM2B LELEM L894 BOLUR/N0485F400 L894 KITAL P570 GOLNI N569 TOKRA DCT MEDPO DCT BOSOB DCT SITUK M321 KSA T503 OVANO L768 FIRAS R655 KTN R785 NIKAS L619 VESAR UB545 MUT DCT OKMOT UT244 EDASA UM855 SISPI |
| Aircraft | A359/H-SDE2E3GHIJ3J4J5LM1ORWXY/LB1D1 |
Departure
| Time | 2026-05-05 09:50 |
|---|---|
| Airport | Velana International Airport (VRMM) |
Arrival
| Time | 2026-05-05 17:32 |
|---|---|
| Airport | İstanbul Airport (LTFM) |
| Time | Latitude | Longitude | Altitude | Speed | Heading |
|---|---|---|---|---|---|
| 2026-05-05 08:44 | 4.18277 | 73.52801 | 19 ft | 0 kts | 269° |
| 2026-05-05 09:38 | 4.18277 | 73.52808 | 19 ft | 4 kts | 269° |
| 2026-05-05 09:39 | 4.18277 | 73.52832 | 19 ft | 3 kts | 269° |
| 2026-05-05 09:39 | 4.18274 | 73.52856 | 20 ft | 4 kts | 310° |
| 2026-05-05 09:39 | 4.18253 | 73.52865 | 21 ft | 4 kts | 6° |
| 2026-05-05 09:39 | 4.18229 | 73.52862 | 23 ft | 1 kts | 359° |
| 2026-05-05 09:40 | 4.18228 | 73.52862 | 23 ft | 5 kts | 359° |
| 2026-05-05 09:42 | 4.18243 | 73.52862 | 22 ft | 5 kts | 359° |
| 2026-05-05 09:42 | 4.18303 | 73.52861 | 19 ft | 12 kts | 359° |
| 2026-05-05 09:43 | 4.18394 | 73.52860 | 22 ft | 15 kts | 359° |
| 2026-05-05 09:43 | 4.18509 | 73.52858 | 22 ft | 18 kts | 359° |
| 2026-05-05 09:43 | 4.18594 | 73.52881 | 21 ft | 9 kts | 54° |
| 2026-05-05 09:43 | 4.18652 | 73.52926 | 23 ft | 12 kts | 9° |
| 2026-05-05 09:44 | 4.18747 | 73.52923 | 21 ft | 16 kts | 358° |
| 2026-05-05 09:44 | 4.18869 | 73.52918 | 20 ft | 19 kts | 358° |
| 2026-05-05 09:44 | 4.19014 | 73.52918 | 22 ft | 22 kts | 0° |
| 2026-05-05 09:44 | 4.19165 | 73.52917 | 22 ft | 21 kts | 359° |
| 2026-05-05 09:45 | 4.19308 | 73.52914 | 20 ft | 20 kts | 359° |
| 2026-05-05 09:45 | 4.19442 | 73.52912 | 20 ft | 19 kts | 359° |
| 2026-05-05 09:45 | 4.19567 | 73.52909 | 19 ft | 18 kts | 359° |
| 2026-05-05 09:45 | 4.19689 | 73.52906 | 21 ft | 17 kts | 359° |
| 2026-05-05 09:46 | 4.19802 | 73.52904 | 22 ft | 16 kts | 359° |
| 2026-05-05 09:46 | 4.19910 | 73.52902 | 21 ft | 15 kts | 359° |
| 2026-05-05 09:46 | 4.20010 | 73.52900 | 21 ft | 14 kts | 359° |
| 2026-05-05 09:46 | 4.20107 | 73.52900 | 19 ft | 13 kts | 359° |
| 2026-05-05 09:47 | 4.20198 | 73.52899 | 21 ft | 13 kts | 359° |
| 2026-05-05 09:47 | 4.20292 | 73.52898 | 18 ft | 14 kts | 359° |
| 2026-05-05 09:47 | 4.20399 | 73.52896 | 21 ft | 16 kts | 359° |
| 2026-05-05 09:47 | 4.20518 | 73.52894 | 18 ft | 18 kts | 359° |
| 2026-05-05 09:48 | 4.20647 | 73.52891 | 20 ft | 19 kts | 359° |
| 2026-05-05 09:48 | 4.20787 | 73.52890 | 18 ft | 21 kts | 5° |
| 2026-05-05 09:48 | 4.20928 | 73.52922 | 21 ft | 21 kts | 15° |
| 2026-05-05 09:48 | 4.21075 | 73.52962 | 21 ft | 22 kts | 15° |
| 2026-05-05 09:49 | 4.21213 | 73.53004 | 21 ft | 19 kts | 31° |
| 2026-05-05 09:49 | 4.21200 | 73.53097 | 20 ft | 15 kts | 162° |
| 2026-05-05 09:49 | 4.21109 | 73.53102 | 20 ft | 13 kts | 178° |
| 2026-05-05 09:49 | 4.21002 | 73.53101 | 20 ft | 26 kts | 180° |
| 2026-05-05 09:50 | 4.20565 | 73.53100 | 22 ft | 98 kts | 180° |
| 2026-05-05 09:50 | 4.19661 | 73.53100 | 23 ft | 160 kts | 180° |
| 2026-05-05 09:50 | 4.18521 | 73.53108 | 711 ft | 160 kts | 183° |
| 2026-05-05 09:50 | 4.17400 | 73.53120 | 1396 ft | 168 kts | 184° |
| 2026-05-05 09:51 | 4.16164 | 73.53091 | 1731 ft | 187 kts | 186° |
| 2026-05-05 09:51 | 4.14804 | 73.53010 | 2109 ft | 205 kts | 188° |
| 2026-05-05 09:51 | 4.13310 | 73.52873 | 2474 ft | 225 kts | 188° |
| 2026-05-05 09:51 | 4.11756 | 73.52490 | 2827 ft | 236 kts | 213° |
| 2026-05-05 09:52 | 4.10682 | 73.51271 | 3229 ft | 241 kts | 251° |
| 2026-05-05 09:52 | 4.10651 | 73.49616 | 3662 ft | 246 kts | 291° |
| 2026-05-05 09:52 | 4.11603 | 73.48168 | 4181 ft | 252 kts | 306° |
| 2026-05-05 09:52 | 4.12659 | 73.46734 | 4718 ft | 260 kts | 305° |
| 2026-05-05 09:53 | 4.13817 | 73.45316 | 5302 ft | 266 kts | 314° |
| 2026-05-05 09:53 | 4.15312 | 73.44193 | 5937 ft | 272 kts | 329° |
| 2026-05-05 09:53 | 4.17079 | 73.43456 | 6570 ft | 278 kts | 341° |
| 2026-05-05 09:53 | 4.18931 | 73.42947 | 7201 ft | 282 kts | 345° |
| 2026-05-05 09:54 | 4.20895 | 73.42696 | 7887 ft | 288 kts | 356° |
| 2026-05-05 09:54 | 4.22900 | 73.42926 | 8643 ft | 293 kts | 12° |
| 2026-05-05 09:54 | 4.24837 | 73.43597 | 9389 ft | 296 kts | 22° |
| 2026-05-05 09:54 | 4.26624 | 73.44641 | 10068 ft | 301 kts | 34° |
| 2026-05-05 09:55 | 4.28213 | 73.46081 | 10450 ft | 317 kts | 46° |
| 2026-05-05 09:55 | 4.29867 | 73.47627 | 10703 ft | 333 kts | 33° |
| 2026-05-05 09:55 | 4.32020 | 73.48535 | 10930 ft | 343 kts | 7° |
| 2026-05-05 09:55 | 4.34424 | 73.48419 | 11201 ft | 350 kts | 341° |
| 2026-05-05 09:56 | 4.36570 | 73.47278 | 11616 ft | 353 kts | 317° |
| 2026-05-05 09:56 | 4.38055 | 73.45347 | 12162 ft | 351 kts | 294° |
| 2026-05-05 09:56 | 4.38971 | 73.43063 | 12668 ft | 356 kts | 289° |
| 2026-05-05 09:56 | 4.39816 | 73.40711 | 13157 ft | 362 kts | 289° |
| 2026-05-05 09:57 | 4.40699 | 73.38340 | 13763 ft | 363 kts | 290° |
| 2026-05-05 09:57 | 4.41926 | 73.36133 | 14279 ft | 367 kts | 309° |
| 2026-05-05 09:57 | 4.43802 | 73.34373 | 14756 ft | 372 kts | 320° |
| 2026-05-05 09:57 | 4.45828 | 73.32783 | 15121 ft | 378 kts | 321° |
| 2026-05-05 09:58 | 4.47921 | 73.31169 | 15582 ft | 380 kts | 321° |
| 2026-05-05 09:58 | 4.50020 | 73.29537 | 16038 ft | 383 kts | 320° |
| 2026-05-05 09:58 | 4.52134 | 73.27878 | 16461 ft | 387 kts | 320° |
| 2026-05-05 09:58 | 4.54262 | 73.26203 | 16879 ft | 391 kts | 320° |
| 2026-05-05 09:59 | 4.56409 | 73.24512 | 17322 ft | 394 kts | 319° |
| 2026-05-05 09:59 | 4.58572 | 73.22808 | 17760 ft | 397 kts | 320° |
| 2026-05-05 09:59 | 4.60751 | 73.21087 | 18179 ft | 401 kts | 319° |
| 2026-05-05 09:59 | 4.62947 | 73.19347 | 18547 ft | 403 kts | 320° |
| 2026-05-05 10:00 | 4.65155 | 73.17601 | 18963 ft | 406 kts | 320° |
| 2026-05-05 10:00 | 4.67380 | 73.15846 | 19376 ft | 408 kts | 320° |
| 2026-05-05 10:00 | 4.69614 | 73.14083 | 19769 ft | 410 kts | 320° |
| 2026-05-05 10:00 | 4.71862 | 73.12306 | 20161 ft | 413 kts | 320° |
| 2026-05-05 10:01 | 4.74125 | 73.10517 | 20565 ft | 415 kts | 319° |
| 2026-05-05 10:01 | 4.76412 | 73.08708 | 20831 ft | 422 kts | 320° |
| 2026-05-05 10:01 | 4.78694 | 73.06901 | 21223 ft | 424 kts | 320° |
| 2026-05-05 10:01 | 4.81018 | 73.05062 | 21656 ft | 426 kts | 320° |
| 2026-05-05 10:02 | 4.83346 | 73.03221 | 22049 ft | 428 kts | 320° |
| 2026-05-05 10:02 | 4.85695 | 73.01361 | 22453 ft | 430 kts | 320° |
| 2026-05-05 10:02 | 4.88060 | 72.99511 | 22854 ft | 432 kts | 321° |
| 2026-05-05 10:02 | 4.90444 | 72.97660 | 23249 ft | 435 kts | 320° |
| 2026-05-05 10:03 | 4.92845 | 72.95795 | 23543 ft | 438 kts | 321° |
| 2026-05-05 10:03 | 4.95260 | 72.93920 | 23895 ft | 439 kts | 321° |
| 2026-05-05 10:03 | 4.97676 | 72.92041 | 24220 ft | 441 kts | 320° |
| 2026-05-05 10:03 | 5.00113 | 72.90148 | 24528 ft | 444 kts | 321° |
| 2026-05-05 10:04 | 5.02557 | 72.88248 | 24871 ft | 446 kts | 321° |
| 2026-05-05 10:04 | 5.05018 | 72.86335 | 25211 ft | 448 kts | 321° |
| 2026-05-05 10:04 | 5.07463 | 72.84433 | 25560 ft | 451 kts | 321° |
| 2026-05-05 10:04 | 5.09946 | 72.82501 | 25936 ft | 453 kts | 321° |
| 2026-05-05 10:05 | 5.12451 | 72.80551 | 26256 ft | 457 kts | 321° |
| 2026-05-05 10:05 | 5.14979 | 72.78583 | 26538 ft | 462 kts | 321° |
| 2026-05-05 10:05 | 5.17520 | 72.76603 | 26959 ft | 463 kts | 321° |
| 2026-05-05 10:05 | 5.20075 | 72.74617 | 27285 ft | 467 kts | 321° |
| 2026-05-05 10:06 | 5.22657 | 72.72611 | 27598 ft | 471 kts | 321° |
| 2026-05-05 10:06 | 5.25252 | 72.70594 | 28031 ft | 472 kts | 322° |
| 2026-05-05 10:06 | 5.27852 | 72.68573 | 28394 ft | 475 kts | 321° |
| 2026-05-05 10:06 | 5.30471 | 72.66536 | 28727 ft | 477 kts | 322° |
| 2026-05-05 10:07 | 5.33096 | 72.64492 | 29173 ft | 478 kts | 322° |
| 2026-05-05 10:07 | 5.35733 | 72.62440 | 29413 ft | 483 kts | 322° |
| 2026-05-05 10:07 | 5.38403 | 72.60360 | 29647 ft | 488 kts | 322° |
| 2026-05-05 10:07 | 5.41086 | 72.58269 | 30051 ft | 488 kts | 321° |
| 2026-05-05 10:08 | 5.43781 | 72.56165 | 30216 ft | 493 kts | 322° |
| 2026-05-05 10:08 | 5.46493 | 72.54046 | 30525 ft | 494 kts | 322° |
| 2026-05-05 10:08 | 5.49216 | 72.51919 | 30813 ft | 496 kts | 322° |
| 2026-05-05 10:08 | 5.51940 | 72.49795 | 31105 ft | 498 kts | 322° |
| 2026-05-05 10:09 | 5.54683 | 72.47657 | 31370 ft | 500 kts | 322° |
| 2026-05-05 10:09 | 5.57398 | 72.45543 | 31729 ft | 499 kts | 322° |
| 2026-05-05 10:09 | 5.60143 | 72.43409 | 31988 ft | 502 kts | 322° |
| 2026-05-05 10:09 | 5.62921 | 72.41247 | 32091 ft | 507 kts | 322° |
| 2026-05-05 10:10 | 5.65701 | 72.39081 | 32411 ft | 506 kts | 322° |
| 2026-05-05 10:10 | 5.68490 | 72.36903 | 32563 ft | 511 kts | 322° |
| 2026-05-05 10:10 | 5.71302 | 72.34705 | 32754 ft | 513 kts | 322° |
| 2026-05-05 10:10 | 5.74118 | 72.32508 | 33113 ft | 511 kts | 322° |
| 2026-05-05 10:11 | 5.76932 | 72.30308 | 33355 ft | 513 kts | 322° |
| 2026-05-05 10:11 | 5.79754 | 72.28101 | 33557 ft | 514 kts | 322° |
| 2026-05-05 10:11 | 5.82568 | 72.25902 | 33947 ft | 512 kts | 322° |
| 2026-05-05 10:11 | 5.85372 | 72.23716 | 34305 ft | 508 kts | 322° |
| 2026-05-05 10:12 | 5.88166 | 72.21536 | 34505 ft | 509 kts | 322° |
| 2026-05-05 10:12 | 5.90966 | 72.19351 | 34803 ft | 507 kts | 322° |
| 2026-05-05 10:12 | 5.93751 | 72.17181 | 35040 ft | 507 kts | 322° |
| 2026-05-05 10:12 | 5.96502 | 72.15037 | 35227 ft | 508 kts | 322° |
| 2026-05-05 10:13 | 5.99285 | 72.12867 | 35565 ft | 505 kts | 322° |
| 2026-05-05 10:13 | 6.02047 | 72.10710 | 35908 ft | 502 kts | 323° |
| 2026-05-05 10:13 | 6.04804 | 72.08557 | 36133 ft | 501 kts | 322° |
| 2026-05-05 10:13 | 6.07551 | 72.06411 | 36451 ft | 499 kts | 322° |
| 2026-05-05 10:14 | 6.10284 | 72.04273 | 36690 ft | 498 kts | 323° |
| 2026-05-05 10:14 | 6.13015 | 72.02135 | 36868 ft | 498 kts | 323° |
| 2026-05-05 10:14 | 6.15755 | 71.99992 | 37110 ft | 497 kts | 322° |
| 2026-05-05 10:14 | 6.18492 | 71.97848 | 37165 ft | 500 kts | 322° |
| 2026-05-05 10:15 | 6.23245 | 71.94130 | 37422 ft | 501 kts | 323° |
| 2026-05-05 10:15 | 6.25989 | 71.91987 | 37713 ft | 498 kts | 323° |
| 2026-05-05 10:15 | 6.28726 | 71.89851 | 37876 ft | 498 kts | 323° |
| 2026-05-05 10:16 | 6.31464 | 71.87711 | 38032 ft | 498 kts | 323° |
| 2026-05-05 10:16 | 6.34203 | 71.85570 | 38280 ft | 496 kts | 323° |
| 2026-05-05 10:16 | 6.36922 | 71.83443 | 38423 ft | 497 kts | 323° |
| 2026-05-05 10:16 | 6.39656 | 71.81308 | 38495 ft | 498 kts | 323° |
| 2026-05-05 10:17 | 6.42391 | 71.79169 | 38668 ft | 497 kts | 323° |
| 2026-05-05 10:17 | 6.45119 | 71.77032 | 38746 ft | 498 kts | 323° |
| 2026-05-05 10:17 | 6.47813 | 71.74920 | 38851 ft | 498 kts | 323° |
| 2026-05-05 10:17 | 6.50537 | 71.72785 | 39020 ft | 496 kts | 323° |
| 2026-05-05 10:18 | 6.53246 | 71.70658 | 39309 ft | 491 kts | 323° |
| 2026-05-05 10:18 | 6.55933 | 71.68552 | 39463 ft | 490 kts | 323° |
| 2026-05-05 10:18 | 6.61324 | 71.64330 | 39621 ft | 491 kts | 323° |
| 2026-05-05 10:19 | 6.66718 | 71.60105 | 39792 ft | 491 kts | 323° |
| 2026-05-05 10:19 | 6.72118 | 71.55874 | 39856 ft | 493 kts | 323° |
| 2026-05-05 10:20 | 6.77533 | 71.51628 | 39856 ft | 494 kts | 323° |
| 2026-05-05 10:20 | 6.82951 | 71.47378 | 39863 ft | 493 kts | 323° |
| 2026-05-05 10:21 | 6.88364 | 71.43127 | 39858 ft | 492 kts | 323° |
| 2026-05-05 10:21 | 6.93757 | 71.38894 | 39858 ft | 491 kts | 323° |
| 2026-05-05 10:22 | 6.99146 | 71.34665 | 39859 ft | 491 kts | 323° |
| 2026-05-05 10:22 | 7.04535 | 71.30435 | 39858 ft | 491 kts | 323° |
| 2026-05-05 10:23 | 7.09888 | 71.26230 | 39859 ft | 491 kts | 323° |
| 2026-05-05 10:23 | 7.15276 | 71.21996 | 39857 ft | 491 kts | 323° |
| 2026-05-05 10:24 | 7.20670 | 71.17756 | 39851 ft | 491 kts | 323° |
| 2026-05-05 10:24 | 7.25254 | 71.14152 | 39845 ft | 490 kts | 323° |
| 2026-05-05 10:25 | 7.29714 | 71.10644 | 39856 ft | 490 kts | 323° |
| 2026-05-05 10:25 | 7.35088 | 71.06416 | 39850 ft | 490 kts | 323° |
| 2026-05-05 10:26 | 7.40462 | 71.02187 | 39852 ft | 490 kts | 323° |
| 2026-05-05 10:26 | 7.45830 | 70.97962 | 39851 ft | 490 kts | 323° |
| 2026-05-05 10:27 | 7.51200 | 70.93734 | 39851 ft | 490 kts | 323° |
| 2026-05-05 10:27 | 7.55803 | 70.90106 | 39846 ft | 490 kts | 323° |
| 2026-05-05 10:28 | 7.61172 | 70.85865 | 39857 ft | 490 kts | 323° |
| 2026-05-05 10:28 | 7.66509 | 70.81646 | 39854 ft | 491 kts | 323° |
| 2026-05-05 10:29 | 7.71890 | 70.77403 | 39860 ft | 491 kts | 323° |
| 2026-05-05 10:29 | 7.76542 | 70.73733 | 39863 ft | 491 kts | 323° |
| 2026-05-05 10:30 | 7.81926 | 70.69482 | 39853 ft | 491 kts | 323° |
| 2026-05-05 10:30 | 7.87300 | 70.65237 | 39857 ft | 491 kts | 323° |
| 2026-05-05 10:31 | 7.92671 | 70.60985 | 39862 ft | 489 kts | 323° |
| 2026-05-05 10:31 | 7.98017 | 70.56759 | 39862 ft | 488 kts | 323° |
| 2026-05-05 10:32 | 8.03366 | 70.52530 | 39859 ft | 489 kts | 323° |
| 2026-05-05 10:32 | 8.08731 | 70.48277 | 39864 ft | 493 kts | 323° |
| 2026-05-05 10:33 | 8.14138 | 70.44003 | 39857 ft | 494 kts | 323° |
| 2026-05-05 10:33 | 8.19510 | 70.39755 | 39860 ft | 493 kts | 323° |
| 2026-05-05 10:34 | 8.24907 | 70.35482 | 39857 ft | 493 kts | 323° |
| 2026-05-05 10:34 | 8.30297 | 70.31211 | 39858 ft | 492 kts | 323° |
| 2026-05-05 10:35 | 8.35684 | 70.26940 | 39863 ft | 493 kts | 323° |
| 2026-05-05 10:35 | 8.41080 | 70.22661 | 39859 ft | 492 kts | 323° |
| 2026-05-05 10:36 | 8.46468 | 70.18387 | 39850 ft | 492 kts | 323° |
| 2026-05-05 10:36 | 8.51859 | 70.14110 | 39849 ft | 492 kts | 323° |
| 2026-05-05 10:37 | 8.57243 | 70.09835 | 39849 ft | 493 kts | 322° |
| 2026-05-05 10:37 | 8.62651 | 70.05530 | 39852 ft | 497 kts | 322° |
| 2026-05-05 10:38 | 8.68061 | 70.01233 | 39862 ft | 498 kts | 322° |
| 2026-05-05 10:38 | 8.73516 | 69.96905 | 39860 ft | 498 kts | 322° |
| 2026-05-05 10:39 | 8.78961 | 69.92580 | 39860 ft | 498 kts | 322° |
| 2026-05-05 10:39 | 8.84413 | 69.88245 | 39865 ft | 498 kts | 322° |
| 2026-05-05 10:40 | 8.89853 | 69.83913 | 39859 ft | 496 kts | 322° |
| 2026-05-05 10:40 | 8.95284 | 69.79582 | 39865 ft | 497 kts | 322° |
| 2026-05-05 10:41 | 9.00730 | 69.75251 | 39865 ft | 498 kts | 322° |
| 2026-05-05 10:41 | 9.06142 | 69.70945 | 39859 ft | 498 kts | 322° |
| 2026-05-05 10:42 | 9.14310 | 69.64438 | 39868 ft | 498 kts | 322° |
| 2026-05-05 10:43 | 9.19754 | 69.60097 | 39867 ft | 498 kts | 322° |
| 2026-05-05 10:43 | 9.25196 | 69.55752 | 39859 ft | 498 kts | 322° |
| 2026-05-05 10:44 | 9.30645 | 69.51398 | 39861 ft | 500 kts | 322° |
| 2026-05-05 10:44 | 9.36117 | 69.47020 | 39853 ft | 502 kts | 322° |
| 2026-05-05 10:45 | 9.41608 | 69.42637 | 39870 ft | 502 kts | 322° |
| 2026-05-05 10:45 | 9.47096 | 69.38264 | 39869 ft | 502 kts | 322° |
| 2026-05-05 10:46 | 9.52552 | 69.33908 | 39870 ft | 502 kts | 322° |
| 2026-05-05 10:46 | 9.58043 | 69.29518 | 39867 ft | 502 kts | 322° |
| 2026-05-05 10:47 | 9.63515 | 69.25140 | 39873 ft | 500 kts | 322° |
| 2026-05-05 10:47 | 9.68976 | 69.20769 | 39871 ft | 500 kts | 322° |
| 2026-05-05 10:48 | 9.74433 | 69.16397 | 39866 ft | 500 kts | 322° |
| 2026-05-05 10:48 | 9.79897 | 69.12018 | 39869 ft | 501 kts | 322° |
| 2026-05-05 10:49 | 9.85366 | 69.07632 | 39872 ft | 501 kts | 322° |
| 2026-05-05 10:49 | 9.90829 | 69.03247 | 39874 ft | 501 kts | 322° |
| 2026-05-05 10:50 | 9.96285 | 68.98867 | 39870 ft | 498 kts | 322° |
| 2026-05-05 10:50 | 10.01684 | 68.94531 | 39872 ft | 498 kts | 322° |
| 2026-05-05 10:51 | 10.07131 | 68.90154 | 39864 ft | 498 kts | 322° |
| 2026-05-05 10:51 | 10.12564 | 68.85787 | 39880 ft | 498 kts | 322° |
| 2026-05-05 10:52 | 10.18000 | 68.81415 | 39868 ft | 499 kts | 322° |
| 2026-05-05 10:52 | 10.23408 | 68.77061 | 39875 ft | 498 kts | 322° |
| 2026-05-05 10:53 | 10.28837 | 68.72686 | 39883 ft | 497 kts | 322° |
| 2026-05-05 10:53 | 10.34256 | 68.68326 | 39878 ft | 497 kts | 322° |
| 2026-05-05 10:54 | 10.39671 | 68.63965 | 39877 ft | 497 kts | 322° |
| 2026-05-05 10:54 | 10.45086 | 68.59602 | 39879 ft | 497 kts | 322° |
| 2026-05-05 10:55 | 10.50496 | 68.55239 | 39876 ft | 497 kts | 322° |
| 2026-05-05 10:55 | 10.55882 | 68.50893 | 39872 ft | 496 kts | 322° |
| 2026-05-05 10:56 | 10.61289 | 68.46520 | 39872 ft | 497 kts | 322° |
| 2026-05-05 10:56 | 10.66705 | 68.42149 | 39874 ft | 497 kts | 322° |
| 2026-05-05 10:57 | 10.72123 | 68.37776 | 39880 ft | 497 kts | 322° |
| 2026-05-05 10:57 | 10.77542 | 68.33399 | 39877 ft | 497 kts | 322° |
| 2026-05-05 10:58 | 10.82961 | 68.29016 | 39879 ft | 497 kts | 322° |
| 2026-05-05 10:58 | 10.88376 | 68.24635 | 39873 ft | 497 kts | 322° |
| 2026-05-05 10:59 | 10.93761 | 68.20276 | 39880 ft | 497 kts | 322° |
| 2026-05-05 10:59 | 10.99162 | 68.15895 | 39877 ft | 496 kts | 322° |
| 2026-05-05 11:00 | 11.04555 | 68.11522 | 39878 ft | 495 kts | 322° |
| 2026-05-05 11:00 | 11.09948 | 68.07151 | 39884 ft | 495 kts | 322° |
| 2026-05-05 11:01 | 11.15346 | 68.02779 | 39883 ft | 495 kts | 322° |
| 2026-05-05 11:01 | 11.20739 | 67.98407 | 39880 ft | 495 kts | 322° |
| 2026-05-05 11:02 | 11.26119 | 67.94039 | 39881 ft | 494 kts | 322° |
| 2026-05-05 11:02 | 11.31465 | 67.89698 | 39881 ft | 494 kts | 322° |
| 2026-05-05 11:03 | 11.36844 | 67.85326 | 39881 ft | 494 kts | 322° |
| 2026-05-05 11:03 | 11.42220 | 67.80956 | 39879 ft | 494 kts | 322° |
| 2026-05-05 11:04 | 11.47596 | 67.76583 | 39877 ft | 494 kts | 322° |
| 2026-05-05 11:04 | 11.52967 | 67.72212 | 39878 ft | 494 kts | 322° |
| 2026-05-05 11:05 | 11.58306 | 67.67864 | 39879 ft | 494 kts | 322° |
| 2026-05-05 11:05 | 11.63678 | 67.63488 | 39879 ft | 494 kts | 322° |
| 2026-05-05 11:06 | 11.69053 | 67.59107 | 39881 ft | 494 kts | 322° |
| 2026-05-05 11:06 | 11.74430 | 67.54723 | 39878 ft | 494 kts | 322° |
| 2026-05-05 11:07 | 11.79802 | 67.50339 | 39871 ft | 494 kts | 322° |
| 2026-05-05 11:07 | 11.85134 | 67.45987 | 39873 ft | 494 kts | 322° |
| 2026-05-05 11:08 | 11.90497 | 67.41607 | 39878 ft | 494 kts | 322° |
| 2026-05-05 11:08 | 11.95866 | 67.37220 | 39874 ft | 494 kts | 322° |
| 2026-05-05 11:09 | 12.01241 | 67.32832 | 39878 ft | 494 kts | 322° |
| 2026-05-05 11:09 | 12.06607 | 67.28441 | 39876 ft | 494 kts | 322° |
| 2026-05-05 11:10 | 12.11968 | 67.24052 | 39875 ft | 494 kts | 322° |
| 2026-05-05 11:10 | 12.17294 | 67.19692 | 39877 ft | 493 kts | 322° |
| 2026-05-05 11:11 | 12.22651 | 67.15304 | 39873 ft | 493 kts | 322° |
| 2026-05-05 11:11 | 12.28011 | 67.10911 | 39872 ft | 493 kts | 322° |
| 2026-05-05 11:12 | 12.33358 | 67.06528 | 39875 ft | 493 kts | 322° |
| 2026-05-05 11:12 | 12.38712 | 67.02136 | 39868 ft | 493 kts | 322° |
| 2026-05-05 11:13 | 12.44066 | 66.97741 | 39873 ft | 493 kts | 322° |
| 2026-05-05 11:13 | 12.48515 | 66.94088 | 39875 ft | 493 kts | 322° |
| 2026-05-05 11:14 | 12.54730 | 66.88981 | 39874 ft | 493 kts | 322° |
| 2026-05-05 11:14 | 12.59209 | 66.85294 | 39873 ft | 493 kts | 322° |
| 2026-05-05 11:15 | 12.64562 | 66.80886 | 39871 ft | 494 kts | 322° |
| 2026-05-05 11:15 | 12.69886 | 66.76510 | 39871 ft | 494 kts | 322° |
| 2026-05-05 11:16 | 12.75252 | 66.72095 | 39872 ft | 494 kts | 322° |
| 2026-05-05 11:16 | 12.80614 | 66.67678 | 39870 ft | 495 kts | 322° |
| 2026-05-05 11:17 | 12.85971 | 66.63262 | 39867 ft | 494 kts | 322° |
| 2026-05-05 11:17 | 12.91327 | 66.58843 | 39868 ft | 494 kts | 322° |
| 2026-05-05 11:18 | 12.96683 | 66.54423 | 39869 ft | 494 kts | 321° |
| 2026-05-05 11:18 | 13.02001 | 66.50032 | 39871 ft | 494 kts | 321° |
| 2026-05-05 11:19 | 13.07366 | 66.45599 | 39863 ft | 495 kts | 321° |
| 2026-05-05 11:19 | 13.12722 | 66.41171 | 39864 ft | 494 kts | 322° |
| 2026-05-05 11:20 | 13.18085 | 66.36735 | 39868 ft | 495 kts | 321° |
| 2026-05-05 11:20 | 13.23447 | 66.32297 | 39868 ft | 495 kts | 321° |
| 2026-05-05 11:21 | 13.28806 | 66.27859 | 39863 ft | 494 kts | 321° |
| 2026-05-05 11:21 | 13.34165 | 66.23416 | 39864 ft | 495 kts | 321° |
| 2026-05-05 11:22 | 13.39514 | 66.18972 | 39868 ft | 494 kts | 321° |
| 2026-05-05 11:22 | 13.44859 | 66.14535 | 39861 ft | 493 kts | 322° |
| 2026-05-05 11:23 | 13.50174 | 66.10132 | 39867 ft | 494 kts | 321° |
| 2026-05-05 11:23 | 13.55517 | 66.05698 | 39869 ft | 494 kts | 322° |
| 2026-05-05 11:24 | 13.60867 | 66.01253 | 39866 ft | 495 kts | 322° |
| 2026-05-05 11:24 | 13.66219 | 65.96802 | 39865 ft | 495 kts | 322° |
| 2026-05-05 11:25 | 13.71561 | 65.92355 | 39865 ft | 493 kts | 322° |
| 2026-05-05 11:25 | 13.76896 | 65.87909 | 39864 ft | 494 kts | 321° |
| 2026-05-05 11:26 | 13.82239 | 65.83461 | 39865 ft | 493 kts | 322° |
| 2026-05-05 11:26 | 13.87570 | 65.79019 | 39868 ft | 493 kts | 321° |
| 2026-05-05 11:27 | 13.92869 | 65.74600 | 39862 ft | 494 kts | 321° |
| 2026-05-05 11:27 | 13.98206 | 65.70145 | 39863 ft | 493 kts | 322° |
| 2026-05-05 11:28 | 14.03547 | 65.65684 | 39859 ft | 494 kts | 322° |
| 2026-05-05 11:28 | 14.08893 | 65.61217 | 39869 ft | 495 kts | 321° |
| 2026-05-05 11:29 | 14.14198 | 65.56781 | 39866 ft | 494 kts | 322° |
| 2026-05-05 11:29 | 14.19531 | 65.52319 | 39867 ft | 494 kts | 322° |
| 2026-05-05 11:30 | 14.24871 | 65.47848 | 39865 ft | 493 kts | 321° |
| 2026-05-05 11:30 | 14.30192 | 65.43390 | 39859 ft | 493 kts | 321° |
| 2026-05-05 11:31 | 14.35508 | 65.38924 | 39863 ft | 492 kts | 322° |
| 2026-05-05 11:31 | 14.40822 | 65.34471 | 39864 ft | 492 kts | 321° |
| 2026-05-05 11:32 | 14.46139 | 65.30013 | 39862 ft | 492 kts | 322° |
| 2026-05-05 11:32 | 14.51455 | 65.25550 | 39861 ft | 493 kts | 322° |
| 2026-05-05 11:33 | 14.56744 | 65.21105 | 39862 ft | 493 kts | 321° |
| 2026-05-05 11:33 | 14.62062 | 65.16634 | 39864 ft | 492 kts | 322° |
| 2026-05-05 11:34 | 14.67362 | 65.12170 | 39865 ft | 492 kts | 321° |
| 2026-05-05 11:34 | 14.72670 | 65.07696 | 39863 ft | 492 kts | 321° |
| 2026-05-05 11:35 | 14.77964 | 65.03233 | 39863 ft | 491 kts | 321° |
| 2026-05-05 11:35 | 14.83261 | 64.98763 | 39858 ft | 492 kts | 322° |
| 2026-05-05 11:36 | 14.88564 | 64.94287 | 39859 ft | 492 kts | 321° |
| 2026-05-05 11:36 | 14.93870 | 64.89804 | 39857 ft | 492 kts | 322° |
| 2026-05-05 11:37 | 14.99177 | 64.85318 | 39862 ft | 492 kts | 322° |
| 2026-05-05 11:37 | 15.04450 | 64.80858 | 39860 ft | 492 kts | 322° |
| 2026-05-05 11:38 | 15.09758 | 64.76366 | 39861 ft | 492 kts | 321° |
| 2026-05-05 11:38 | 15.15057 | 64.71877 | 39854 ft | 492 kts | 322° |
| 2026-05-05 11:39 | 15.20321 | 64.67416 | 39854 ft | 491 kts | 321° |
| 2026-05-05 11:39 | 15.25619 | 64.62923 | 39858 ft | 492 kts | 321° |
| 2026-05-05 11:40 | 15.30912 | 64.58431 | 39853 ft | 491 kts | 322° |
| 2026-05-05 11:40 | 15.36208 | 64.53933 | 39855 ft | 492 kts | 321° |
| 2026-05-05 11:41 | 15.41499 | 64.49436 | 39854 ft | 491 kts | 321° |
| 2026-05-05 11:41 | 15.46754 | 64.44967 | 39855 ft | 492 kts | 321° |
| 2026-05-05 11:42 | 15.52052 | 64.40459 | 39848 ft | 492 kts | 321° |
| 2026-05-05 11:42 | 15.57346 | 64.35951 | 39849 ft | 492 kts | 321° |
| 2026-05-05 11:43 | 15.62636 | 64.31443 | 39852 ft | 492 kts | 321° |
| 2026-05-05 11:43 | 15.67939 | 64.26921 | 39848 ft | 492 kts | 321° |
| 2026-05-05 11:44 | 15.73197 | 64.22434 | 39843 ft | 492 kts | 321° |
| 2026-05-05 11:44 | 15.78484 | 64.17920 | 39852 ft | 492 kts | 321° |
| 2026-05-05 11:45 | 15.83770 | 64.13402 | 39851 ft | 492 kts | 321° |
| 2026-05-05 11:45 | 15.89065 | 64.08875 | 39849 ft | 493 kts | 321° |
| 2026-05-05 11:46 | 15.94354 | 64.04348 | 39844 ft | 492 kts | 321° |
| 2026-05-05 11:46 | 15.99649 | 63.99814 | 39842 ft | 494 kts | 321° |
| 2026-05-05 11:47 | 16.04950 | 63.95271 | 39846 ft | 493 kts | 321° |
| 2026-05-05 11:47 | 16.10241 | 63.90731 | 39841 ft | 494 kts | 321° |
| 2026-05-05 11:48 | 16.18180 | 63.83919 | 39845 ft | 493 kts | 321° |
| 2026-05-05 11:48 | 16.23445 | 63.79397 | 39845 ft | 493 kts | 321° |
| 2026-05-05 11:49 | 16.28734 | 63.74850 | 39839 ft | 493 kts | 321° |
| 2026-05-05 11:49 | 16.34019 | 63.70302 | 39838 ft | 492 kts | 321° |
| 2026-05-05 11:50 | 16.39290 | 63.65764 | 39843 ft | 492 kts | 321° |
| 2026-05-05 11:50 | 16.44571 | 63.61215 | 39840 ft | 493 kts | 321° |
| 2026-05-05 11:51 | 16.49855 | 63.56658 | 39837 ft | 492 kts | 321° |
| 2026-05-05 11:51 | 16.55127 | 63.52109 | 39838 ft | 492 kts | 321° |
| 2026-05-05 11:52 | 16.60378 | 63.47575 | 39845 ft | 493 kts | 321° |
| 2026-05-05 11:52 | 16.65668 | 63.43005 | 39842 ft | 493 kts | 321° |
| 2026-05-05 11:53 | 16.70944 | 63.38442 | 39842 ft | 492 kts | 320° |
| 2026-05-05 11:53 | 16.76213 | 63.33882 | 39839 ft | 492 kts | 321° |
| 2026-05-05 11:54 | 16.81488 | 63.29313 | 39840 ft | 492 kts | 320° |
| 2026-05-05 11:54 | 16.86758 | 63.24746 | 39838 ft | 492 kts | 321° |
| 2026-05-05 11:55 | 16.91988 | 63.20210 | 39840 ft | 492 kts | 321° |
| 2026-05-05 11:55 | 16.97254 | 63.15639 | 39834 ft | 492 kts | 320° |
| 2026-05-05 11:56 | 17.02515 | 63.11061 | 39835 ft | 492 kts | 320° |
| 2026-05-05 11:56 | 17.07696 | 63.06385 | 39837 ft | 491 kts | 319° |
| 2026-05-05 11:57 | 17.12837 | 63.01675 | 39835 ft | 491 kts | 319° |
| 2026-05-05 11:57 | 17.17988 | 62.96969 | 39836 ft | 492 kts | 319° |
| 2026-05-05 11:58 | 17.23114 | 62.92301 | 39840 ft | 492 kts | 319° |
| 2026-05-05 11:58 | 17.28282 | 62.87599 | 39835 ft | 492 kts | 319° |
| 2026-05-05 11:59 | 17.33447 | 62.82896 | 39834 ft | 492 kts | 319° |
| 2026-05-05 11:59 | 17.38612 | 62.78188 | 39834 ft | 491 kts | 319° |
| 2026-05-05 12:00 | 17.43766 | 62.73486 | 39831 ft | 491 kts | 319° |
| 2026-05-05 12:00 | 17.48918 | 62.68782 | 39836 ft | 491 kts | 319° |
| 2026-05-05 12:01 | 17.54080 | 62.64066 | 39837 ft | 492 kts | 319° |
| 2026-05-05 12:01 | 17.59236 | 62.59351 | 39830 ft | 492 kts | 319° |
| 2026-05-05 12:02 | 17.64359 | 62.54662 | 39834 ft | 491 kts | 319° |
| 2026-05-05 12:02 | 17.69507 | 62.49948 | 39828 ft | 491 kts | 319° |
| 2026-05-05 12:03 | 17.74656 | 62.45228 | 39829 ft | 491 kts | 319° |
| 2026-05-05 12:03 | 17.79805 | 62.40504 | 39830 ft | 491 kts | 319° |
| 2026-05-05 12:04 | 17.84082 | 62.36578 | 39829 ft | 491 kts | 319° |
| 2026-05-05 12:04 | 17.89238 | 62.31841 | 39829 ft | 491 kts | 319° |
| 2026-05-05 12:05 | 17.94387 | 62.27108 | 39826 ft | 491 kts | 319° |
| 2026-05-05 12:05 | 17.99532 | 62.22374 | 39827 ft | 491 kts | 319° |
| 2026-05-05 12:06 | 18.04638 | 62.17672 | 39830 ft | 491 kts | 319° |
| 2026-05-05 12:06 | 18.09778 | 62.12935 | 39829 ft | 491 kts | 319° |
| 2026-05-05 12:07 | 18.14910 | 62.08201 | 39830 ft | 491 kts | 319° |
| 2026-05-05 12:07 | 18.20042 | 62.03464 | 39829 ft | 491 kts | 319° |
| 2026-05-05 12:08 | 18.25183 | 61.98714 | 39827 ft | 491 kts | 319° |
| 2026-05-05 12:08 | 18.30276 | 61.94005 | 39823 ft | 490 kts | 319° |
| 2026-05-05 12:09 | 18.35405 | 61.89258 | 39824 ft | 490 kts | 318° |
| 2026-05-05 12:09 | 18.40524 | 61.84517 | 39824 ft | 490 kts | 318° |
| 2026-05-05 12:10 | 18.45647 | 61.79769 | 39823 ft | 490 kts | 319° |
| 2026-05-05 12:10 | 18.50759 | 61.75026 | 39823 ft | 490 kts | 318° |
| 2026-05-05 12:11 | 18.55867 | 61.70284 | 39826 ft | 489 kts | 318° |
| 2026-05-05 12:11 | 18.60943 | 61.65567 | 39824 ft | 489 kts | 318° |
| 2026-05-05 12:12 | 18.66049 | 61.60818 | 39824 ft | 489 kts | 318° |
| 2026-05-05 12:12 | 18.71150 | 61.56071 | 39824 ft | 489 kts | 318° |
| 2026-05-05 12:13 | 18.76258 | 61.51313 | 39820 ft | 489 kts | 318° |
| 2026-05-05 12:13 | 18.81368 | 61.46549 | 39819 ft | 488 kts | 318° |
| 2026-05-05 12:14 | 18.86420 | 61.41834 | 39821 ft | 487 kts | 318° |
| 2026-05-05 12:14 | 18.91508 | 61.37082 | 39818 ft | 488 kts | 318° |
| 2026-05-05 12:15 | 18.96601 | 61.32321 | 39818 ft | 488 kts | 318° |
| 2026-05-05 12:15 | 19.01683 | 61.27567 | 39818 ft | 488 kts | 318° |
| 2026-05-05 12:16 | 19.06757 | 61.22817 | 39814 ft | 486 kts | 318° |
| 2026-05-05 12:16 | 19.11782 | 61.18108 | 39816 ft | 485 kts | 318° |
| 2026-05-05 12:17 | 19.16837 | 61.13368 | 39815 ft | 485 kts | 318° |
| 2026-05-05 12:17 | 19.21893 | 61.08621 | 39816 ft | 486 kts | 318° |
| 2026-05-05 12:18 | 19.26952 | 61.03868 | 39814 ft | 486 kts | 318° |
| 2026-05-05 12:18 | 19.32008 | 60.99113 | 39812 ft | 485 kts | 317° |
| 2026-05-05 12:19 | 19.37023 | 60.94385 | 39813 ft | 486 kts | 318° |
| 2026-05-05 12:19 | 19.42082 | 60.89624 | 39812 ft | 486 kts | 318° |
| 2026-05-05 12:20 | 19.47145 | 60.84855 | 39813 ft | 485 kts | 317° |
| 2026-05-05 12:20 | 19.52191 | 60.80096 | 39814 ft | 485 kts | 317° |
| 2026-05-05 12:21 | 19.57233 | 60.75333 | 39815 ft | 485 kts | 317° |
| 2026-05-05 12:21 | 19.62249 | 60.70592 | 39813 ft | 487 kts | 318° |
| 2026-05-05 12:22 | 19.67310 | 60.65805 | 39810 ft | 487 kts | 317° |
| 2026-05-05 12:22 | 19.72364 | 60.61020 | 39810 ft | 486 kts | 317° |
| 2026-05-05 12:23 | 19.77412 | 60.56235 | 39811 ft | 485 kts | 317° |
| 2026-05-05 12:23 | 19.82418 | 60.51484 | 39806 ft | 486 kts | 317° |
| 2026-05-05 12:24 | 19.87456 | 60.46699 | 39805 ft | 486 kts | 317° |
| 2026-05-05 12:24 | 19.92504 | 60.41906 | 39806 ft | 486 kts | 317° |
| 2026-05-05 12:25 | 19.97547 | 60.37112 | 39807 ft | 484 kts | 317° |
| 2026-05-05 12:25 | 20.02564 | 60.32337 | 39804 ft | 484 kts | 317° |
| 2026-05-05 12:26 | 20.08000 | 60.28100 | 39803 ft | 485 kts | 327° |
| 2026-05-05 12:26 | 20.13765 | 60.24352 | 39806 ft | 485 kts | 328° |
| 2026-05-05 12:27 | 20.19582 | 60.20711 | 39802 ft | 485 kts | 329° |
| 2026-05-05 12:27 | 20.25408 | 60.17060 | 39799 ft | 485 kts | 328° |
| 2026-05-05 12:28 | 20.31220 | 60.13382 | 39803 ft | 486 kts | 328° |
| 2026-05-05 12:28 | 20.37025 | 60.09692 | 39800 ft | 485 kts | 328° |
| 2026-05-05 12:29 | 20.42816 | 60.06004 | 39801 ft | 485 kts | 328° |
| 2026-05-05 12:29 | 20.48564 | 60.02341 | 39797 ft | 484 kts | 328° |
| 2026-05-05 12:30 | 20.54360 | 59.98645 | 39802 ft | 485 kts | 328° |
| 2026-05-05 12:30 | 20.60146 | 59.94952 | 39801 ft | 485 kts | 328° |
| 2026-05-05 12:31 | 20.65949 | 59.91246 | 39796 ft | 485 kts | 328° |
| 2026-05-05 12:31 | 20.71736 | 59.87546 | 39796 ft | 485 kts | 328° |
| 2026-05-05 12:32 | 20.77486 | 59.83867 | 39795 ft | 484 kts | 328° |
| 2026-05-05 12:32 | 20.83273 | 59.80161 | 39797 ft | 485 kts | 327° |
| 2026-05-05 12:33 | 20.89057 | 59.76453 | 39797 ft | 484 kts | 328° |
| 2026-05-05 12:33 | 20.94785 | 59.72654 | 39794 ft | 484 kts | 322° |
| 2026-05-05 12:34 | 20.99588 | 59.67684 | 39796 ft | 480 kts | 306° |
| 2026-05-05 12:34 | 21.02689 | 59.61454 | 39796 ft | 478 kts | 290° |
| 2026-05-05 12:35 | 21.04800 | 59.54708 | 39794 ft | 478 kts | 286° |
| 2026-05-05 12:35 | 21.06716 | 59.47883 | 39788 ft | 478 kts | 286° |
| 2026-05-05 12:36 | 21.08648 | 59.41074 | 39787 ft | 477 kts | 287° |
| 2026-05-05 12:36 | 21.10614 | 59.34289 | 39789 ft | 477 kts | 287° |
| 2026-05-05 12:37 | 21.12597 | 59.27493 | 39787 ft | 477 kts | 287° |
| 2026-05-05 12:37 | 21.14577 | 59.20703 | 39788 ft | 477 kts | 287° |
| 2026-05-05 12:38 | 21.16550 | 59.13919 | 39793 ft | 477 kts | 287° |
| 2026-05-05 12:38 | 21.18518 | 59.07138 | 39791 ft | 477 kts | 287° |
| 2026-05-05 12:39 | 21.20487 | 59.00340 | 39791 ft | 477 kts | 287° |
| 2026-05-05 12:39 | 21.22426 | 58.93605 | 39804 ft | 475 kts | 286° |
| 2026-05-05 12:40 | 21.24381 | 58.86840 | 39794 ft | 475 kts | 287° |
| 2026-05-05 12:40 | 21.26337 | 58.80074 | 39794 ft | 475 kts | 286° |
| 2026-05-05 12:41 | 21.28288 | 58.73309 | 39791 ft | 475 kts | 286° |
| 2026-05-05 12:41 | 21.30229 | 58.66545 | 39790 ft | 475 kts | 286° |
| 2026-05-05 12:42 | 21.32170 | 58.59770 | 39793 ft | 475 kts | 286° |
| 2026-05-05 12:42 | 21.34107 | 58.53002 | 39787 ft | 474 kts | 286° |
| 2026-05-05 12:43 | 21.36041 | 58.46233 | 39785 ft | 475 kts | 286° |
| 2026-05-05 12:43 | 21.37972 | 58.39464 | 39783 ft | 474 kts | 286° |
| 2026-05-05 12:44 | 21.39881 | 58.32764 | 39771 ft | 472 kts | 286° |
| 2026-05-05 12:44 | 21.41799 | 58.26016 | 39771 ft | 472 kts | 286° |
| 2026-05-05 12:45 | 21.43712 | 58.19274 | 39766 ft | 472 kts | 286° |
| 2026-05-05 12:45 | 21.45623 | 58.12532 | 39761 ft | 472 kts | 286° |
| 2026-05-05 12:46 | 21.47533 | 58.05779 | 39759 ft | 473 kts | 286° |
| 2026-05-05 12:46 | 21.49442 | 57.99021 | 39761 ft | 473 kts | 286° |
| 2026-05-05 12:47 | 21.51347 | 57.92264 | 39759 ft | 472 kts | 286° |
| 2026-05-05 12:47 | 21.53240 | 57.85536 | 39758 ft | 474 kts | 286° |
| 2026-05-05 12:48 | 21.55147 | 57.78749 | 39767 ft | 474 kts | 286° |
| 2026-05-05 12:48 | 21.57049 | 57.71973 | 39761 ft | 472 kts | 285° |
| 2026-05-05 12:49 | 21.58941 | 57.65219 | 39764 ft | 471 kts | 285° |
| 2026-05-05 12:49 | 21.60818 | 57.58503 | 39761 ft | 472 kts | 285° |
| 2026-05-05 12:50 | 21.62700 | 57.51737 | 39757 ft | 472 kts | 285° |
| 2026-05-05 12:50 | 21.64579 | 57.44974 | 39753 ft | 472 kts | 285° |
| 2026-05-05 12:51 | 21.66457 | 57.38208 | 39748 ft | 472 kts | 285° |
| 2026-05-05 12:51 | 21.68018 | 57.32578 | 39753 ft | 472 kts | 285° |
| 2026-05-05 12:52 | 21.70198 | 57.24699 | 39749 ft | 473 kts | 285° |
| 2026-05-05 12:52 | 21.71768 | 57.19018 | 39752 ft | 473 kts | 285° |
| 2026-05-05 12:53 | 21.73628 | 57.12280 | 39753 ft | 473 kts | 285° |
| 2026-05-05 12:53 | 21.75493 | 57.05496 | 39744 ft | 473 kts | 285° |
| 2026-05-05 12:54 | 21.78282 | 56.95323 | 39747 ft | 473 kts | 285° |
| 2026-05-05 12:55 | 21.80139 | 56.88536 | 39740 ft | 473 kts | 285° |
| 2026-05-05 12:55 | 21.81994 | 56.81750 | 39737 ft | 473 kts | 285° |
| 2026-05-05 12:56 | 21.83848 | 56.74954 | 39738 ft | 473 kts | 285° |
| 2026-05-05 12:56 | 21.85687 | 56.68206 | 39746 ft | 473 kts | 285° |
| 2026-05-05 12:57 | 21.87534 | 56.61417 | 39739 ft | 471 kts | 285° |
| 2026-05-05 12:57 | 21.89373 | 56.54642 | 39735 ft | 471 kts | 284° |
| 2026-05-05 12:58 | 21.91206 | 56.47877 | 39735 ft | 471 kts | 284° |
| 2026-05-05 12:58 | 21.93041 | 56.41094 | 39732 ft | 471 kts | 284° |
| 2026-05-05 12:59 | 21.94871 | 56.34319 | 39726 ft | 471 kts | 284° |
| 2026-05-05 12:59 | 21.96701 | 56.27540 | 39724 ft | 471 kts | 284° |
| 2026-05-05 13:00 | 21.99418 | 56.17399 | 39732 ft | 471 kts | 284° |
| 2026-05-05 13:01 | 22.03047 | 56.03847 | 39724 ft | 469 kts | 284° |
| 2026-05-05 13:01 | 22.04859 | 55.97092 | 39715 ft | 469 kts | 284° |
| 2026-05-05 13:02 | 22.06667 | 55.90331 | 39722 ft | 469 kts | 284° |
| 2026-05-05 13:02 | 22.08473 | 55.83570 | 39721 ft | 469 kts | 284° |
| 2026-05-05 13:03 | 22.10267 | 55.76845 | 39719 ft | 469 kts | 284° |
| 2026-05-05 13:03 | 22.12068 | 55.70081 | 39713 ft | 469 kts | 284° |
| 2026-05-05 13:04 | 22.13865 | 55.63316 | 39715 ft | 469 kts | 284° |
| 2026-05-05 13:04 | 22.15518 | 55.56517 | 39713 ft | 467 kts | 278° |
| 2026-05-05 13:05 | 22.16330 | 55.49595 | 39709 ft | 464 kts | 274° |
| 2026-05-05 13:05 | 22.16892 | 55.42662 | 39707 ft | 464 kts | 273° |
| 2026-05-05 13:06 | 22.17419 | 55.35762 | 39701 ft | 464 kts | 273° |
| 2026-05-05 13:06 | 22.17968 | 55.28819 | 39711 ft | 464 kts | 273° |
| 2026-05-05 13:07 | 22.18529 | 55.21886 | 39711 ft | 464 kts | 274° |
| 2026-05-05 13:07 | 22.19091 | 55.14949 | 39711 ft | 464 kts | 274° |
| 2026-05-05 13:08 | 22.19650 | 55.08009 | 39701 ft | 464 kts | 274° |
| 2026-05-05 13:08 | 22.20205 | 55.01061 | 39696 ft | 464 kts | 273° |
| 2026-05-05 13:09 | 22.20758 | 54.94106 | 39705 ft | 465 kts | 273° |
| 2026-05-05 13:09 | 22.21308 | 54.87157 | 39706 ft | 465 kts | 273° |
| 2026-05-05 13:10 | 22.21855 | 54.80198 | 39703 ft | 465 kts | 273° |
| 2026-05-05 13:10 | 22.22395 | 54.73301 | 39696 ft | 463 kts | 273° |
| 2026-05-05 13:11 | 22.22935 | 54.66365 | 39704 ft | 463 kts | 273° |
| 2026-05-05 13:11 | 22.23469 | 54.59442 | 39698 ft | 463 kts | 273° |
| 2026-05-05 13:12 | 22.24001 | 54.52517 | 39709 ft | 463 kts | 273° |
| 2026-05-05 13:12 | 22.24531 | 54.45586 | 39706 ft | 463 kts | 273° |
| 2026-05-05 13:13 | 22.25058 | 54.38664 | 39699 ft | 463 kts | 273° |
| 2026-05-05 13:13 | 22.25579 | 54.31768 | 39705 ft | 463 kts | 273° |
| 2026-05-05 13:14 | 22.26101 | 54.24839 | 39697 ft | 463 kts | 273° |
| 2026-05-05 13:14 | 22.26619 | 54.17910 | 39707 ft | 463 kts | 273° |
| 2026-05-05 13:15 | 22.27131 | 54.11021 | 39696 ft | 462 kts | 273° |
| 2026-05-05 13:15 | 22.27643 | 54.04098 | 39709 ft | 462 kts | 273° |
| 2026-05-05 13:16 | 22.28152 | 53.97175 | 39697 ft | 462 kts | 273° |
| 2026-05-05 13:16 | 22.28658 | 53.90252 | 39698 ft | 461 kts | 273° |
| 2026-05-05 13:17 | 22.29159 | 53.83349 | 39695 ft | 461 kts | 273° |
| 2026-05-05 13:17 | 22.29654 | 53.76487 | 39701 ft | 461 kts | 273° |
| 2026-05-05 13:18 | 22.30150 | 53.69574 | 39702 ft | 461 kts | 273° |
| 2026-05-05 13:18 | 22.30643 | 53.62666 | 39705 ft | 461 kts | 272° |
| 2026-05-05 13:19 | 22.31133 | 53.55754 | 39696 ft | 461 kts | 272° |
| 2026-05-05 13:19 | 22.31618 | 53.48879 | 39710 ft | 461 kts | 272° |
| 2026-05-05 13:20 | 22.32102 | 53.41974 | 39710 ft | 461 kts | 272° |
| 2026-05-05 13:20 | 22.32583 | 53.35066 | 39705 ft | 461 kts | 272° |
| 2026-05-05 13:21 | 22.33061 | 53.28157 | 39698 ft | 461 kts | 272° |
| 2026-05-05 13:21 | 22.33536 | 53.21244 | 39711 ft | 461 kts | 272° |
| 2026-05-05 13:22 | 22.34008 | 53.14335 | 39707 ft | 460 kts | 272° |
| 2026-05-05 13:22 | 22.34473 | 53.07492 | 39705 ft | 459 kts | 272° |
| 2026-05-05 13:23 | 22.34938 | 53.00613 | 39707 ft | 459 kts | 272° |
| 2026-05-05 13:23 | 22.35399 | 52.93730 | 39708 ft | 459 kts | 272° |
| 2026-05-05 13:24 | 22.35858 | 52.86849 | 39707 ft | 459 kts | 272° |
| 2026-05-05 13:24 | 22.36311 | 52.80005 | 39709 ft | 459 kts | 272° |
| 2026-05-05 13:25 | 22.36763 | 52.73128 | 39705 ft | 459 kts | 272° |
| 2026-05-05 13:25 | 22.37213 | 52.66254 | 39708 ft | 459 kts | 272° |
| 2026-05-05 13:26 | 22.37659 | 52.59380 | 39706 ft | 459 kts | 272° |
| 2026-05-05 13:26 | 22.38103 | 52.52501 | 39709 ft | 459 kts | 272° |
| 2026-05-05 13:27 | 22.38543 | 52.45628 | 39712 ft | 459 kts | 272° |
| 2026-05-05 13:27 | 22.38981 | 52.38755 | 39715 ft | 459 kts | 272° |
| 2026-05-05 13:28 | 22.39412 | 52.31929 | 39710 ft | 457 kts | 272° |
| 2026-05-05 13:28 | 22.39844 | 52.25064 | 39711 ft | 457 kts | 272° |
| 2026-05-05 13:29 | 22.40271 | 52.18205 | 39711 ft | 457 kts | 272° |
| 2026-05-05 13:29 | 22.40699 | 52.11349 | 39710 ft | 457 kts | 272° |
| 2026-05-05 13:30 | 22.41242 | 52.04500 | 39714 ft | 457 kts | 273° |
| 2026-05-05 13:30 | 22.41834 | 51.97683 | 39715 ft | 458 kts | 273° |
| 2026-05-05 13:31 | 22.42411 | 51.90827 | 39712 ft | 458 kts | 273° |
| 2026-05-05 13:31 | 22.42971 | 51.83970 | 39714 ft | 458 kts | 273° |
| 2026-05-05 13:32 | 22.43523 | 51.77111 | 39717 ft | 458 kts | 273° |
| 2026-05-05 13:32 | 22.44074 | 51.70224 | 39717 ft | 459 kts | 273° |
| 2026-05-05 13:33 | 22.44621 | 51.63354 | 39719 ft | 458 kts | 273° |
| 2026-05-05 13:33 | 22.45162 | 51.56535 | 39718 ft | 457 kts | 273° |
| 2026-05-05 13:34 | 22.45703 | 51.49677 | 39714 ft | 458 kts | 273° |
| 2026-05-05 13:34 | 22.46242 | 51.42811 | 39719 ft | 458 kts | 273° |
| 2026-05-05 13:35 | 22.46778 | 51.35941 | 39719 ft | 458 kts | 273° |
| 2026-05-05 13:35 | 22.47311 | 51.29079 | 39716 ft | 458 kts | 273° |
| 2026-05-05 13:36 | 22.47838 | 51.22251 | 39716 ft | 458 kts | 273° |
| 2026-05-05 13:36 | 22.48364 | 51.15392 | 39716 ft | 458 kts | 273° |
| 2026-05-05 13:37 | 22.48887 | 51.08535 | 39716 ft | 458 kts | 273° |
| 2026-05-05 13:37 | 22.49408 | 51.01673 | 39716 ft | 458 kts | 272° |
| 2026-05-05 13:38 | 22.49925 | 50.94816 | 39721 ft | 458 kts | 272° |
| 2026-05-05 13:38 | 22.50440 | 50.87964 | 39716 ft | 457 kts | 272° |
| 2026-05-05 13:39 | 22.50950 | 50.81123 | 39719 ft | 456 kts | 272° |
| 2026-05-05 13:39 | 22.51458 | 50.74279 | 39719 ft | 456 kts | 272° |
| 2026-05-05 13:40 | 22.51962 | 50.67440 | 39722 ft | 456 kts | 272° |
| 2026-05-05 13:40 | 22.52461 | 50.60637 | 39722 ft | 456 kts | 272° |
| 2026-05-05 13:41 | 22.52960 | 50.53790 | 39722 ft | 456 kts | 272° |
| 2026-05-05 13:41 | 22.53372 | 50.48100 | 39722 ft | 456 kts | 272° |
| 2026-05-05 13:42 | 22.53866 | 50.41259 | 39716 ft | 456 kts | 272° |
| 2026-05-05 13:42 | 22.54356 | 50.34411 | 39722 ft | 457 kts | 272° |
| 2026-05-05 13:43 | 22.54845 | 50.27553 | 39716 ft | 457 kts | 272° |
| 2026-05-05 13:43 | 22.55331 | 50.20690 | 39716 ft | 457 kts | 272° |
| 2026-05-05 13:44 | 22.55814 | 50.13838 | 39719 ft | 457 kts | 272° |
| 2026-05-05 13:44 | 22.56290 | 50.07035 | 39719 ft | 457 kts | 272° |
| 2026-05-05 13:45 | 22.56766 | 50.00188 | 39719 ft | 456 kts | 272° |
| 2026-05-05 13:45 | 22.57239 | 49.93336 | 39719 ft | 457 kts | 272° |
| 2026-05-05 13:46 | 22.57711 | 49.86473 | 39719 ft | 457 kts | 272° |
| 2026-05-05 13:46 | 22.58178 | 49.79620 | 39719 ft | 456 kts | 272° |
| 2026-05-05 13:47 | 22.58643 | 49.72769 | 39714 ft | 456 kts | 272° |
| 2026-05-05 13:47 | 22.59105 | 49.65918 | 39713 ft | 457 kts | 272° |
| 2026-05-05 13:48 | 22.59564 | 49.59069 | 39713 ft | 457 kts | 272° |
| 2026-05-05 13:48 | 22.60019 | 49.52225 | 39713 ft | 456 kts | 272° |
| 2026-05-05 13:49 | 22.60471 | 49.45385 | 39713 ft | 455 kts | 272° |
| 2026-05-05 13:49 | 22.60918 | 49.38588 | 39714 ft | 455 kts | 272° |
| 2026-05-05 13:50 | 22.61364 | 49.31753 | 39711 ft | 455 kts | 272° |
| 2026-05-05 13:50 | 22.61808 | 49.24900 | 39711 ft | 456 kts | 271° |
| 2026-05-05 13:51 | 22.62249 | 49.18057 | 39711 ft | 456 kts | 271° |
| 2026-05-05 13:51 | 22.62684 | 49.11243 | 39711 ft | 456 kts | 271° |
| 2026-05-05 13:52 | 22.63120 | 49.04391 | 39712 ft | 456 kts | 271° |
| 2026-05-05 13:52 | 22.63553 | 48.97536 | 39713 ft | 456 kts | 271° |
| 2026-05-05 13:53 | 22.63983 | 48.90675 | 39719 ft | 456 kts | 271° |
| 2026-05-05 13:53 | 22.64409 | 48.83837 | 39711 ft | 455 kts | 271° |
| 2026-05-05 13:54 | 22.64831 | 48.77006 | 39715 ft | 454 kts | 271° |
| 2026-05-05 13:54 | 22.65248 | 48.70215 | 39713 ft | 454 kts | 271° |
| 2026-05-05 13:55 | 22.65664 | 48.63391 | 39718 ft | 454 kts | 271° |
| 2026-05-05 13:55 | 22.66078 | 48.56561 | 39714 ft | 454 kts | 271° |
| 2026-05-05 13:56 | 22.66488 | 48.49727 | 39712 ft | 454 kts | 271° |
| 2026-05-05 13:56 | 22.66896 | 48.42900 | 39719 ft | 454 kts | 271° |
| 2026-05-05 13:57 | 22.67301 | 48.36058 | 39717 ft | 455 kts | 271° |
| 2026-05-05 13:57 | 22.67701 | 48.29261 | 39712 ft | 455 kts | 271° |
| 2026-05-05 13:58 | 22.68101 | 48.22422 | 39717 ft | 454 kts | 271° |
| 2026-05-05 13:58 | 22.68506 | 48.15618 | 39714 ft | 453 kts | 272° |
| 2026-05-05 13:59 | 22.69829 | 48.08927 | 39719 ft | 458 kts | 287° |
| 2026-05-05 13:59 | 22.71150 | 48.05776 | 39718 ft | 463 kts | 295° |
| 2026-05-05 14:00 | 22.75158 | 48.00252 | 39720 ft | 474 kts | 313° |
| 2026-05-05 14:00 | 22.76853 | 47.98744 | 39722 ft | 478 kts | 320° |
| 2026-05-05 14:00 | 22.83360 | 47.94129 | 39733 ft | 482 kts | 323° |
| 2026-05-05 14:01 | 22.89100 | 47.90387 | 39724 ft | 481 kts | 324° |
| 2026-05-05 14:01 | 22.94829 | 47.86613 | 39730 ft | 481 kts | 323° |
| 2026-05-05 14:02 | 23.00517 | 47.82805 | 39730 ft | 480 kts | 323° |
| 2026-05-05 14:02 | 23.06197 | 47.78983 | 39733 ft | 479 kts | 322° |
| 2026-05-05 14:03 | 23.11865 | 47.75160 | 39735 ft | 479 kts | 322° |
| 2026-05-05 14:03 | 23.17522 | 47.71334 | 39741 ft | 479 kts | 322° |
| 2026-05-05 14:04 | 23.23143 | 47.67529 | 39744 ft | 479 kts | 322° |
| 2026-05-05 14:04 | 23.28789 | 47.63707 | 39743 ft | 478 kts | 322° |
| 2026-05-05 14:05 | 23.34437 | 47.59881 | 39742 ft | 478 kts | 322° |
| 2026-05-05 14:05 | 23.40084 | 47.56053 | 39745 ft | 478 kts | 322° |
| 2026-05-05 14:06 | 23.45727 | 47.52224 | 39750 ft | 477 kts | 322° |
| 2026-05-05 14:06 | 23.51362 | 47.48399 | 39745 ft | 477 kts | 322° |
| 2026-05-05 14:07 | 23.56994 | 47.44572 | 39740 ft | 477 kts | 322° |
| 2026-05-05 14:07 | 23.62624 | 47.40743 | 39747 ft | 476 kts | 321° |
| 2026-05-05 14:08 | 23.68210 | 47.36940 | 39741 ft | 476 kts | 321° |
| 2026-05-05 14:08 | 23.73830 | 47.33110 | 39738 ft | 476 kts | 321° |
| 2026-05-05 14:09 | 23.79442 | 47.29281 | 39746 ft | 476 kts | 321° |
| 2026-05-05 14:09 | 23.85058 | 47.25446 | 39728 ft | 475 kts | 321° |
| 2026-05-05 14:10 | 23.90632 | 47.21636 | 39733 ft | 475 kts | 321° |
| 2026-05-05 14:10 | 23.96266 | 47.17780 | 39742 ft | 475 kts | 321° |
| 2026-05-05 14:11 | 24.01827 | 47.13971 | 39747 ft | 474 kts | 321° |
| 2026-05-05 14:11 | 24.07424 | 47.10133 | 39737 ft | 474 kts | 321° |
| 2026-05-05 14:12 | 24.13222 | 47.06595 | 39740 ft | 481 kts | 328° |
| 2026-05-05 14:12 | 24.19370 | 47.03618 | 39748 ft | 484 kts | 329° |
| 2026-05-05 14:13 | 24.25591 | 47.00768 | 39741 ft | 484 kts | 330° |
| 2026-05-05 14:13 | 24.31777 | 46.97927 | 39742 ft | 484 kts | 329° |
| 2026-05-05 14:14 | 24.37984 | 46.95047 | 39767 ft | 484 kts | 329° |
| 2026-05-05 14:14 | 24.44197 | 46.92148 | 39751 ft | 485 kts | 329° |
| 2026-05-05 14:15 | 24.50413 | 46.89244 | 39755 ft | 485 kts | 329° |
| 2026-05-05 14:15 | 24.56630 | 46.86337 | 39754 ft | 485 kts | 329° |
| 2026-05-05 14:16 | 24.62843 | 46.83430 | 39759 ft | 486 kts | 329° |
| 2026-05-05 14:16 | 24.69066 | 46.80515 | 39777 ft | 486 kts | 329° |
| 2026-05-05 14:17 | 24.75248 | 46.77616 | 39795 ft | 486 kts | 329° |
| 2026-05-05 14:17 | 24.81467 | 46.74697 | 39813 ft | 485 kts | 328° |
| 2026-05-05 14:18 | 24.87694 | 46.71771 | 39827 ft | 485 kts | 328° |
| 2026-05-05 14:18 | 24.93871 | 46.68863 | 39828 ft | 485 kts | 328° |
| 2026-05-05 14:19 | 24.99562 | 46.65166 | 39839 ft | 465 kts | 313° |
| 2026-05-05 14:19 | 25.04433 | 46.60539 | 39825 ft | 460 kts | 309° |
| 2026-05-05 14:20 | 25.09110 | 46.55711 | 39809 ft | 459 kts | 308° |
| 2026-05-05 14:20 | 25.13763 | 46.50878 | 39815 ft | 460 kts | 308° |
| 2026-05-05 14:21 | 25.18413 | 46.46093 | 39783 ft | 459 kts | 308° |
| 2026-05-05 14:21 | 25.23092 | 46.41300 | 39774 ft | 458 kts | 308° |
| 2026-05-05 14:22 | 25.27766 | 46.36509 | 39779 ft | 458 kts | 309° |
| 2026-05-05 14:22 | 25.32444 | 46.31710 | 39785 ft | 458 kts | 308° |
| 2026-05-05 14:23 | 25.37114 | 46.26910 | 39784 ft | 458 kts | 308° |
| 2026-05-05 14:23 | 25.41551 | 46.22346 | 39780 ft | 458 kts | 308° |
| 2026-05-05 14:24 | 25.45789 | 46.17982 | 39784 ft | 458 kts | 308° |
| 2026-05-05 14:24 | 25.50450 | 46.13178 | 39786 ft | 458 kts | 308° |
| 2026-05-05 14:25 | 25.55114 | 46.08363 | 39791 ft | 458 kts | 308° |
| 2026-05-05 14:25 | 25.59774 | 46.03548 | 39789 ft | 458 kts | 308° |
| 2026-05-05 14:26 | 25.64435 | 45.98733 | 39797 ft | 458 kts | 308° |
| 2026-05-05 14:26 | 25.69087 | 45.93918 | 39793 ft | 457 kts | 307° |
| 2026-05-05 14:27 | 25.73731 | 45.89099 | 39799 ft | 457 kts | 307° |
| 2026-05-05 14:27 | 25.78348 | 45.84304 | 39802 ft | 457 kts | 307° |
| 2026-05-05 14:28 | 25.82993 | 45.79477 | 39804 ft | 457 kts | 307° |
| 2026-05-05 14:28 | 25.87629 | 45.74656 | 39805 ft | 457 kts | 307° |
| 2026-05-05 14:29 | 25.92266 | 45.69827 | 39807 ft | 456 kts | 307° |
| 2026-05-05 14:29 | 25.96897 | 45.64996 | 39806 ft | 456 kts | 307° |
| 2026-05-05 14:30 | 26.00740 | 45.60983 | 39812 ft | 456 kts | 307° |
| 2026-05-05 14:30 | 26.05367 | 45.56147 | 39814 ft | 456 kts | 307° |
| 2026-05-05 14:31 | 26.09993 | 45.51307 | 39829 ft | 456 kts | 307° |
| 2026-05-05 14:31 | 26.14613 | 45.46468 | 39811 ft | 456 kts | 307° |
| 2026-05-05 14:32 | 26.19236 | 45.41622 | 39811 ft | 456 kts | 307° |
| 2026-05-05 14:32 | 26.23827 | 45.36805 | 39814 ft | 455 kts | 307° |
| 2026-05-05 14:33 | 26.28437 | 45.31961 | 39814 ft | 455 kts | 307° |
| 2026-05-05 14:33 | 26.33049 | 45.27120 | 39812 ft | 455 kts | 307° |
| 2026-05-05 14:34 | 26.37661 | 45.22284 | 39815 ft | 455 kts | 307° |
| 2026-05-05 14:34 | 26.42275 | 45.17441 | 39821 ft | 455 kts | 307° |
| 2026-05-05 14:35 | 26.46881 | 45.12599 | 39815 ft | 455 kts | 307° |
| 2026-05-05 14:35 | 26.51486 | 45.07753 | 39812 ft | 455 kts | 307° |
| 2026-05-05 14:36 | 26.56068 | 45.02926 | 39815 ft | 455 kts | 307° |
| 2026-05-05 14:36 | 26.60697 | 44.98048 | 39807 ft | 454 kts | 306° |
| 2026-05-05 14:37 | 26.65273 | 44.93220 | 39809 ft | 455 kts | 306° |
| 2026-05-05 14:37 | 26.69873 | 44.88358 | 39819 ft | 455 kts | 306° |
| 2026-05-05 14:38 | 26.74479 | 44.83486 | 39820 ft | 455 kts | 306° |
| 2026-05-05 14:38 | 26.79083 | 44.78614 | 39807 ft | 455 kts | 306° |
| 2026-05-05 14:39 | 26.83640 | 44.73773 | 39826 ft | 454 kts | 306° |
| 2026-05-05 14:39 | 26.88222 | 44.68894 | 39812 ft | 455 kts | 306° |
| 2026-05-05 14:40 | 26.92809 | 44.64007 | 39811 ft | 455 kts | 306° |
| 2026-05-05 14:40 | 26.97400 | 44.59113 | 39815 ft | 456 kts | 306° |
| 2026-05-05 14:41 | 27.02001 | 44.54208 | 39811 ft | 456 kts | 306° |
| 2026-05-05 14:41 | 27.06592 | 44.49294 | 39806 ft | 456 kts | 306° |
| 2026-05-05 14:42 | 27.11181 | 44.44372 | 39813 ft | 456 kts | 306° |
| 2026-05-05 14:42 | 27.15773 | 44.39444 | 39826 ft | 456 kts | 306° |
| 2026-05-05 14:43 | 27.20359 | 44.34526 | 39809 ft | 456 kts | 306° |
| 2026-05-05 14:43 | 27.24919 | 44.29633 | 39834 ft | 456 kts | 306° |
| 2026-05-05 14:44 | 27.29507 | 44.24705 | 39831 ft | 456 kts | 306° |
| 2026-05-05 14:44 | 27.34092 | 44.19773 | 39845 ft | 456 kts | 305° |
| 2026-05-05 14:45 | 27.38670 | 44.14845 | 39839 ft | 455 kts | 305° |
| 2026-05-05 14:45 | 27.43251 | 44.09905 | 39852 ft | 455 kts | 305° |
| 2026-05-05 14:46 | 27.47788 | 44.05008 | 39855 ft | 455 kts | 305° |
| 2026-05-05 14:46 | 27.52354 | 44.00072 | 39856 ft | 455 kts | 305° |
| 2026-05-05 14:47 | 27.56919 | 43.95133 | 39861 ft | 455 kts | 305° |
| 2026-05-05 14:47 | 27.61484 | 43.90187 | 39864 ft | 454 kts | 305° |
| 2026-05-05 14:48 | 27.66044 | 43.85240 | 39864 ft | 454 kts | 305° |
| 2026-05-05 14:48 | 27.70596 | 43.80297 | 39875 ft | 454 kts | 305° |
| 2026-05-05 14:49 | 27.75154 | 43.75341 | 39875 ft | 455 kts | 305° |
| 2026-05-05 14:49 | 27.79703 | 43.70388 | 39883 ft | 455 kts | 305° |
| 2026-05-05 14:50 | 27.84258 | 43.65422 | 39887 ft | 455 kts | 305° |
| 2026-05-05 14:50 | 27.88681 | 43.60360 | 39889 ft | 450 kts | 302° |
| 2026-05-05 14:51 | 27.92888 | 43.55185 | 39891 ft | 450 kts | 302° |
| 2026-05-05 14:51 | 27.97133 | 43.49968 | 39897 ft | 451 kts | 302° |
| 2026-05-05 14:52 | 28.01417 | 43.44767 | 39897 ft | 451 kts | 302° |
| 2026-05-05 14:52 | 28.05710 | 43.39579 | 39918 ft | 451 kts | 302° |
| 2026-05-05 14:53 | 28.10003 | 43.34388 | 39916 ft | 452 kts | 302° |
| 2026-05-05 14:53 | 28.14299 | 43.29184 | 39921 ft | 452 kts | 302° |
| 2026-05-05 14:54 | 28.18591 | 43.23977 | 39922 ft | 452 kts | 302° |
| 2026-05-05 14:54 | 28.22875 | 43.18773 | 39928 ft | 451 kts | 302° |
| 2026-05-05 14:55 | 28.27126 | 43.13603 | 39925 ft | 451 kts | 302° |
| 2026-05-05 14:55 | 28.31427 | 43.08363 | 39927 ft | 450 kts | 302° |
| 2026-05-05 14:56 | 28.35673 | 43.03184 | 39930 ft | 450 kts | 302° |
| 2026-05-05 14:56 | 28.39942 | 42.97973 | 39933 ft | 449 kts | 302° |
| 2026-05-05 14:57 | 28.44193 | 42.92777 | 39933 ft | 449 kts | 302° |
| 2026-05-05 14:57 | 28.48440 | 42.87577 | 39938 ft | 448 kts | 302° |
| 2026-05-05 14:58 | 28.52681 | 42.82378 | 39936 ft | 448 kts | 302° |
| 2026-05-05 14:58 | 28.56895 | 42.77205 | 39936 ft | 448 kts | 302° |
| 2026-05-05 14:59 | 28.61132 | 42.71997 | 39938 ft | 448 kts | 302° |
| 2026-05-05 14:59 | 28.65364 | 42.66793 | 39944 ft | 448 kts | 302° |
| 2026-05-05 15:00 | 28.68884 | 42.62462 | 39947 ft | 448 kts | 302° |
| 2026-05-05 15:00 | 28.73822 | 42.56366 | 39952 ft | 447 kts | 302° |
| 2026-05-05 15:01 | 28.78015 | 42.51182 | 39952 ft | 447 kts | 302° |
| 2026-05-05 15:01 | 28.82231 | 42.45965 | 39953 ft | 447 kts | 302° |
| 2026-05-05 15:02 | 28.86443 | 42.40748 | 39958 ft | 447 kts | 302° |
| 2026-05-05 15:02 | 28.90656 | 42.35523 | 39964 ft | 447 kts | 302° |
| 2026-05-05 15:03 | 28.94871 | 42.30287 | 39964 ft | 447 kts | 302° |
| 2026-05-05 15:03 | 28.99081 | 42.25054 | 39968 ft | 447 kts | 302° |
| 2026-05-05 15:04 | 29.03260 | 42.19851 | 39969 ft | 447 kts | 302° |
| 2026-05-05 15:04 | 29.07471 | 42.14603 | 39971 ft | 447 kts | 302° |
| 2026-05-05 15:05 | 29.13779 | 42.06723 | 39977 ft | 447 kts | 301° |
| 2026-05-05 15:06 | 29.17981 | 42.01467 | 39980 ft | 447 kts | 301° |
| 2026-05-05 15:06 | 29.22154 | 41.96240 | 39990 ft | 446 kts | 301° |
| 2026-05-05 15:07 | 29.26335 | 41.91000 | 39981 ft | 444 kts | 301° |
| 2026-05-05 15:07 | 29.30502 | 41.85766 | 39991 ft | 444 kts | 301° |
| 2026-05-05 15:08 | 29.34662 | 41.80533 | 39985 ft | 444 kts | 301° |
| 2026-05-05 15:08 | 29.38821 | 41.75296 | 40004 ft | 443 kts | 301° |
| 2026-05-05 15:09 | 29.42971 | 41.70065 | 39998 ft | 443 kts | 301° |
| 2026-05-05 15:09 | 29.47082 | 41.64875 | 40001 ft | 442 kts | 301° |
| 2026-05-05 15:10 | 29.51218 | 41.59646 | 40004 ft | 442 kts | 301° |
| 2026-05-05 15:10 | 29.55353 | 41.54411 | 40001 ft | 443 kts | 301° |
| 2026-05-05 15:11 | 29.59499 | 41.49153 | 39999 ft | 444 kts | 301° |
| 2026-05-05 15:11 | 29.63650 | 41.43886 | 39998 ft | 444 kts | 301° |
| 2026-05-05 15:12 | 29.67799 | 41.38615 | 40004 ft | 444 kts | 301° |
| 2026-05-05 15:12 | 29.71946 | 41.33340 | 40027 ft | 444 kts | 301° |
| 2026-05-05 15:13 | 29.76382 | 41.28273 | 40008 ft | 453 kts | 306° |
| 2026-05-05 15:13 | 29.81090 | 41.23407 | 40009 ft | 455 kts | 307° |
| 2026-05-05 15:14 | 29.85812 | 41.18612 | 39998 ft | 455 kts | 307° |
| 2026-05-05 15:14 | 29.90551 | 41.13772 | 40002 ft | 455 kts | 307° |
| 2026-05-05 15:15 | 29.95270 | 41.08921 | 40001 ft | 454 kts | 307° |
| 2026-05-05 15:15 | 29.99981 | 41.04063 | 40005 ft | 454 kts | 307° |
| 2026-05-05 15:16 | 30.04688 | 40.99203 | 39991 ft | 454 kts | 307° |
| 2026-05-05 15:16 | 30.08604 | 40.95154 | 40001 ft | 454 kts | 307° |
| 2026-05-05 15:17 | 30.13316 | 40.90279 | 40019 ft | 454 kts | 307° |
| 2026-05-05 15:17 | 30.18016 | 40.85410 | 39995 ft | 453 kts | 307° |
| 2026-05-05 15:18 | 30.22675 | 40.80577 | 39996 ft | 452 kts | 307° |
| 2026-05-05 15:18 | 30.27366 | 40.75702 | 39996 ft | 452 kts | 307° |
| 2026-05-05 15:19 | 30.32046 | 40.70833 | 39995 ft | 452 kts | 307° |
| 2026-05-05 15:19 | 30.36692 | 40.65994 | 39997 ft | 452 kts | 307° |
| 2026-05-05 15:20 | 30.41382 | 40.61122 | 39994 ft | 453 kts | 307° |
| 2026-05-05 15:20 | 30.46111 | 40.56289 | 39994 ft | 453 kts | 308° |
| 2026-05-05 15:21 | 30.50837 | 40.51466 | 39993 ft | 452 kts | 308° |
| 2026-05-05 15:21 | 30.55556 | 40.46631 | 40014 ft | 452 kts | 308° |
| 2026-05-05 15:22 | 30.60264 | 40.41794 | 39991 ft | 451 kts | 308° |
| 2026-05-05 15:22 | 30.64960 | 40.36961 | 39994 ft | 451 kts | 308° |
| 2026-05-05 15:23 | 30.69623 | 40.32155 | 39994 ft | 451 kts | 308° |
| 2026-05-05 15:23 | 30.74311 | 40.27316 | 39981 ft | 451 kts | 308° |
| 2026-05-05 15:24 | 30.79002 | 40.22470 | 39992 ft | 450 kts | 308° |
| 2026-05-05 15:24 | 30.83676 | 40.17636 | 39983 ft | 449 kts | 308° |
| 2026-05-05 15:25 | 30.88340 | 40.12803 | 39982 ft | 449 kts | 307° |
| 2026-05-05 15:25 | 30.93005 | 40.07961 | 39983 ft | 449 kts | 307° |
| 2026-05-05 15:26 | 30.97668 | 40.03117 | 39985 ft | 449 kts | 307° |
| 2026-05-05 15:26 | 31.02319 | 39.98280 | 39979 ft | 447 kts | 307° |
| 2026-05-05 15:27 | 31.06960 | 39.93446 | 39979 ft | 447 kts | 307° |
| 2026-05-05 15:27 | 31.11568 | 39.88638 | 39979 ft | 447 kts | 307° |
| 2026-05-05 15:28 | 31.16205 | 39.83791 | 39987 ft | 447 kts | 307° |
| 2026-05-05 15:28 | 31.20844 | 39.78938 | 39982 ft | 447 kts | 307° |
| 2026-05-05 15:29 | 31.25474 | 39.74090 | 39973 ft | 447 kts | 307° |
| 2026-05-05 15:29 | 31.30100 | 39.69239 | 39968 ft | 447 kts | 307° |
| 2026-05-05 15:30 | 31.34696 | 39.64411 | 39971 ft | 446 kts | 307° |
| 2026-05-05 15:30 | 31.39313 | 39.59555 | 39971 ft | 446 kts | 307° |
| 2026-05-05 15:31 | 31.43932 | 39.54690 | 39971 ft | 447 kts | 307° |
| 2026-05-05 15:31 | 31.48570 | 39.49803 | 39966 ft | 448 kts | 307° |
| 2026-05-05 15:32 | 31.53200 | 39.44909 | 39966 ft | 448 kts | 307° |
| 2026-05-05 15:32 | 31.57826 | 39.40013 | 39966 ft | 448 kts | 307° |
| 2026-05-05 15:33 | 31.62463 | 39.35102 | 39988 ft | 448 kts | 307° |
| 2026-05-05 15:33 | 31.67094 | 39.30187 | 39969 ft | 450 kts | 307° |
| 2026-05-05 15:34 | 31.71739 | 39.25253 | 39966 ft | 451 kts | 307° |
| 2026-05-05 15:34 | 31.76360 | 39.20340 | 39966 ft | 450 kts | 307° |
| 2026-05-05 15:35 | 31.81390 | 39.15774 | 39994 ft | 467 kts | 319° |
| 2026-05-05 15:35 | 31.87143 | 39.12095 | 39994 ft | 474 kts | 322° |
| 2026-05-05 15:36 | 31.93061 | 39.08653 | 39962 ft | 474 kts | 323° |
| 2026-05-05 15:36 | 31.98979 | 39.05226 | 39963 ft | 473 kts | 323° |
| 2026-05-05 15:37 | 32.04867 | 39.01773 | 39958 ft | 473 kts | 323° |
| 2026-05-05 15:37 | 32.10752 | 38.98306 | 39965 ft | 473 kts | 323° |
| 2026-05-05 15:38 | 32.16637 | 38.94829 | 39958 ft | 473 kts | 323° |
| 2026-05-05 15:38 | 32.22481 | 38.91372 | 39957 ft | 473 kts | 323° |
| 2026-05-05 15:39 | 32.28364 | 38.87889 | 39957 ft | 472 kts | 323° |
| 2026-05-05 15:39 | 32.34235 | 38.84409 | 39949 ft | 472 kts | 323° |
| 2026-05-05 15:40 | 32.40100 | 38.80926 | 39947 ft | 471 kts | 323° |
| 2026-05-05 15:40 | 32.45966 | 38.77438 | 39943 ft | 472 kts | 323° |
| 2026-05-05 15:41 | 32.51830 | 38.73946 | 39941 ft | 472 kts | 323° |
| 2026-05-05 15:41 | 32.57666 | 38.70466 | 39938 ft | 472 kts | 323° |
| 2026-05-05 15:42 | 32.63535 | 38.66967 | 39979 ft | 472 kts | 323° |
| 2026-05-05 15:42 | 32.69405 | 38.63456 | 39939 ft | 472 kts | 324° |
| 2026-05-05 15:43 | 32.75273 | 38.59941 | 39942 ft | 472 kts | 324° |
| 2026-05-05 15:43 | 32.81142 | 38.56423 | 39940 ft | 472 kts | 324° |
| 2026-05-05 15:44 | 32.86968 | 38.52926 | 39935 ft | 472 kts | 324° |
| 2026-05-05 15:44 | 32.92833 | 38.49399 | 39944 ft | 472 kts | 324° |
| 2026-05-05 15:45 | 32.98699 | 38.45870 | 39944 ft | 472 kts | 324° |
| 2026-05-05 15:45 | 33.04561 | 38.42337 | 39944 ft | 472 kts | 324° |
| 2026-05-05 15:46 | 33.10418 | 38.38793 | 39943 ft | 472 kts | 324° |
| 2026-05-05 15:46 | 33.16277 | 38.35250 | 39950 ft | 472 kts | 324° |
| 2026-05-05 15:47 | 33.22136 | 38.31708 | 39950 ft | 472 kts | 324° |
| 2026-05-05 15:47 | 33.27988 | 38.28147 | 39949 ft | 472 kts | 324° |
| 2026-05-05 15:48 | 33.33835 | 38.24571 | 39946 ft | 472 kts | 324° |
| 2026-05-05 15:48 | 33.39682 | 38.20993 | 39947 ft | 472 kts | 324° |
| 2026-05-05 15:49 | 33.45530 | 38.17412 | 39971 ft | 471 kts | 325° |
| 2026-05-05 15:49 | 33.51318 | 38.13894 | 39945 ft | 469 kts | 325° |
| 2026-05-05 15:50 | 33.57138 | 38.10362 | 39948 ft | 468 kts | 325° |
| 2026-05-05 15:50 | 33.62951 | 38.06826 | 39947 ft | 468 kts | 325° |
| 2026-05-05 15:51 | 33.68768 | 38.03281 | 39946 ft | 468 kts | 325° |
| 2026-05-05 15:51 | 33.74591 | 37.99725 | 39949 ft | 470 kts | 325° |
| 2026-05-05 15:52 | 33.80429 | 37.96155 | 39949 ft | 470 kts | 325° |
| 2026-05-05 15:52 | 33.85884 | 37.92087 | 39950 ft | 455 kts | 313° |
| 2026-05-05 15:53 | 33.90044 | 37.86574 | 39958 ft | 440 kts | 299° |
| 2026-05-05 15:53 | 33.93407 | 37.80437 | 39958 ft | 438 kts | 296° |
| 2026-05-05 15:54 | 33.96600 | 37.74200 | 39960 ft | 437 kts | 296° |
| 2026-05-05 15:54 | 33.99801 | 37.67962 | 39967 ft | 438 kts | 296° |
| 2026-05-05 15:55 | 34.03040 | 37.61717 | 39963 ft | 440 kts | 296° |
| 2026-05-05 15:55 | 34.06276 | 37.55503 | 39963 ft | 440 kts | 296° |
| 2026-05-05 15:56 | 34.09528 | 37.49250 | 39965 ft | 440 kts | 296° |
| 2026-05-05 15:56 | 34.12780 | 37.42982 | 39969 ft | 442 kts | 296° |
| 2026-05-05 15:57 | 34.16064 | 37.36634 | 39970 ft | 446 kts | 296° |
| 2026-05-05 15:57 | 34.19334 | 37.30307 | 39968 ft | 447 kts | 296° |
| 2026-05-05 15:58 | 34.23085 | 37.24256 | 39970 ft | 454 kts | 305° |
| 2026-05-05 15:58 | 34.27378 | 37.18656 | 39971 ft | 453 kts | 308° |
| 2026-05-05 15:59 | 34.31761 | 37.13175 | 39976 ft | 452 kts | 308° |
| 2026-05-05 15:59 | 34.36125 | 37.07696 | 39976 ft | 452 kts | 308° |
| 2026-05-05 16:00 | 34.40466 | 37.02196 | 39978 ft | 451 kts | 307° |
| 2026-05-05 16:00 | 34.44792 | 36.96689 | 39986 ft | 452 kts | 308° |
| 2026-05-05 16:01 | 34.49122 | 36.91166 | 39978 ft | 452 kts | 308° |
| 2026-05-05 16:01 | 34.53434 | 36.85660 | 39977 ft | 452 kts | 308° |
| 2026-05-05 16:02 | 34.57767 | 36.80119 | 39977 ft | 452 kts | 308° |
| 2026-05-05 16:02 | 34.62101 | 36.74568 | 39985 ft | 452 kts | 307° |
| 2026-05-05 16:03 | 34.66434 | 36.69008 | 39977 ft | 454 kts | 307° |
| 2026-05-05 16:03 | 34.70779 | 36.63425 | 39979 ft | 455 kts | 307° |
| 2026-05-05 16:04 | 34.75102 | 36.57862 | 39979 ft | 455 kts | 307° |
| 2026-05-05 16:04 | 34.79444 | 36.52264 | 39982 ft | 455 kts | 307° |
| 2026-05-05 16:05 | 34.83785 | 36.46654 | 39985 ft | 456 kts | 308° |
| 2026-05-05 16:05 | 34.87410 | 36.41965 | 39988 ft | 458 kts | 308° |
| 2026-05-05 16:06 | 34.91775 | 36.36311 | 39986 ft | 458 kts | 308° |
| 2026-05-05 16:06 | 34.96853 | 36.29723 | 39985 ft | 458 kts | 308° |
| 2026-05-05 16:07 | 35.00478 | 36.25011 | 39996 ft | 458 kts | 308° |
| 2026-05-05 16:07 | 35.04833 | 36.19342 | 39991 ft | 457 kts | 308° |
| 2026-05-05 16:08 | 35.09180 | 36.13674 | 39984 ft | 457 kts | 308° |
| 2026-05-05 16:08 | 35.13519 | 36.08005 | 39987 ft | 457 kts | 308° |
| 2026-05-05 16:09 | 35.17641 | 36.02136 | 39989 ft | 451 kts | 300° |
| 2026-05-05 16:09 | 35.20682 | 35.95505 | 39987 ft | 446 kts | 292° |
| 2026-05-05 16:10 | 35.23308 | 35.88624 | 39984 ft | 445 kts | 290° |
| 2026-05-05 16:10 | 35.25847 | 35.81723 | 39982 ft | 445 kts | 290° |
| 2026-05-05 16:11 | 35.28386 | 35.74868 | 39995 ft | 446 kts | 291° |
| 2026-05-05 16:12 | 35.33152 | 35.62112 | 39979 ft | 446 kts | 291° |
| 2026-05-05 16:13 | 35.38783 | 35.46998 | 39977 ft | 446 kts | 291° |
| 2026-05-05 16:13 | 35.41239 | 35.40378 | 39969 ft | 446 kts | 291° |
| 2026-05-05 16:14 | 35.45545 | 35.28744 | 39975 ft | 446 kts | 291° |
| 2026-05-05 16:15 | 35.50561 | 35.15135 | 39974 ft | 446 kts | 292° |
| 2026-05-05 16:16 | 35.55305 | 35.02208 | 39983 ft | 446 kts | 292° |
| 2026-05-05 16:17 | 35.59124 | 34.91762 | 39980 ft | 446 kts | 292° |
| 2026-05-05 16:18 | 35.62931 | 34.81318 | 39981 ft | 446 kts | 292° |
| 2026-05-05 16:19 | 35.66725 | 34.70874 | 39978 ft | 446 kts | 292° |
| 2026-05-05 16:19 | 35.70491 | 34.60473 | 39981 ft | 445 kts | 292° |
| 2026-05-05 16:20 | 35.75519 | 34.46529 | 39984 ft | 445 kts | 292° |
| 2026-05-05 16:22 | 35.81811 | 34.28991 | 39978 ft | 450 kts | 292° |
| 2026-05-05 16:23 | 35.86868 | 34.14832 | 39970 ft | 452 kts | 292° |
| 2026-05-05 16:23 | 35.91096 | 34.04411 | 39971 ft | 455 kts | 304° |
| 2026-05-05 16:24 | 35.95489 | 33.98771 | 39966 ft | 460 kts | 319° |
| 2026-05-05 16:25 | 36.03534 | 33.92323 | 39967 ft | 461 kts | 327° |
| 2026-05-05 16:25 | 36.11797 | 33.86300 | 39963 ft | 458 kts | 326° |
| 2026-05-05 16:26 | 36.22671 | 33.78085 | 39963 ft | 458 kts | 326° |
| 2026-05-05 16:27 | 36.28100 | 33.73951 | 39961 ft | 458 kts | 326° |
| 2026-05-05 16:27 | 36.33535 | 33.69806 | 39962 ft | 458 kts | 326° |
| 2026-05-05 16:28 | 36.38947 | 33.65657 | 39961 ft | 458 kts | 326° |
| 2026-05-05 16:28 | 36.44386 | 33.61489 | 39986 ft | 459 kts | 326° |
| 2026-05-05 16:29 | 36.49832 | 33.57322 | 39975 ft | 461 kts | 326° |
| 2026-05-05 16:29 | 36.55254 | 33.53166 | 39974 ft | 461 kts | 326° |
| 2026-05-05 16:30 | 36.60715 | 33.48970 | 39979 ft | 461 kts | 326° |
| 2026-05-05 16:30 | 36.66165 | 33.44772 | 39984 ft | 461 kts | 326° |
| 2026-05-05 16:31 | 36.71621 | 33.40562 | 40011 ft | 461 kts | 326° |
| 2026-05-05 16:31 | 36.77076 | 33.36346 | 39989 ft | 462 kts | 326° |
| 2026-05-05 16:32 | 36.82537 | 33.32117 | 40005 ft | 462 kts | 326° |
| 2026-05-05 16:32 | 36.87987 | 33.27872 | 40005 ft | 462 kts | 324° |
| 2026-05-05 16:33 | 36.93237 | 33.23277 | 40018 ft | 460 kts | 322° |
| 2026-05-05 16:33 | 36.98407 | 33.18537 | 40016 ft | 460 kts | 322° |
| 2026-05-05 16:34 | 37.03584 | 33.13836 | 40023 ft | 459 kts | 322° |
| 2026-05-05 16:34 | 37.08789 | 33.09175 | 40021 ft | 459 kts | 323° |
| 2026-05-05 16:35 | 37.13989 | 33.04543 | 40018 ft | 459 kts | 323° |
| 2026-05-05 16:35 | 37.19155 | 32.99930 | 40026 ft | 459 kts | 323° |
| 2026-05-05 16:36 | 37.24356 | 32.95270 | 40021 ft | 459 kts | 323° |
| 2026-05-05 16:36 | 37.29554 | 32.90600 | 40028 ft | 459 kts | 323° |
| 2026-05-05 16:37 | 37.34754 | 32.85922 | 40037 ft | 460 kts | 323° |
| 2026-05-05 16:37 | 37.39919 | 32.81267 | 40025 ft | 459 kts | 323° |
| 2026-05-05 16:38 | 37.45110 | 32.76581 | 40023 ft | 459 kts | 323° |
| 2026-05-05 16:38 | 37.50314 | 32.71875 | 40023 ft | 459 kts | 323° |
| 2026-05-05 16:39 | 37.55501 | 32.67176 | 40042 ft | 459 kts | 323° |
| 2026-05-05 16:39 | 37.60705 | 32.62452 | 40023 ft | 461 kts | 323° |
| 2026-05-05 16:40 | 37.65874 | 32.57754 | 40023 ft | 460 kts | 323° |
| 2026-05-05 16:40 | 37.71064 | 32.53028 | 40022 ft | 459 kts | 323° |
| 2026-05-05 16:41 | 37.76248 | 32.48299 | 40022 ft | 459 kts | 323° |
| 2026-05-05 16:41 | 37.81426 | 32.43566 | 40024 ft | 459 kts | 323° |
| 2026-05-05 16:42 | 37.86608 | 32.38821 | 40035 ft | 460 kts | 323° |
| 2026-05-05 16:42 | 37.91794 | 32.34065 | 40032 ft | 460 kts | 323° |
| 2026-05-05 16:43 | 37.96946 | 32.29331 | 40028 ft | 460 kts | 323° |
| 2026-05-05 16:43 | 38.02137 | 32.24553 | 40034 ft | 459 kts | 323° |
| 2026-05-05 16:44 | 38.07306 | 32.19787 | 40039 ft | 459 kts | 323° |
| 2026-05-05 16:44 | 38.12477 | 32.15010 | 40047 ft | 459 kts | 323° |
| 2026-05-05 16:45 | 38.17615 | 32.10255 | 40048 ft | 459 kts | 323° |
| 2026-05-05 16:45 | 38.22779 | 32.05468 | 40047 ft | 459 kts | 323° |
| 2026-05-05 16:46 | 38.27933 | 32.00681 | 40048 ft | 458 kts | 323° |
| 2026-05-05 16:46 | 38.33071 | 31.95901 | 40047 ft | 457 kts | 322° |
| 2026-05-05 16:47 | 38.38211 | 31.91110 | 40052 ft | 457 kts | 322° |
| 2026-05-05 16:47 | 38.43350 | 31.86312 | 40047 ft | 458 kts | 323° |
| 2026-05-05 16:48 | 38.48457 | 31.81521 | 40044 ft | 458 kts | 321° |
| 2026-05-05 16:48 | 38.52936 | 31.75784 | 40046 ft | 456 kts | 309° |
| 2026-05-05 16:49 | 38.56810 | 31.69371 | 40042 ft | 456 kts | 307° |
| 2026-05-05 16:49 | 38.60577 | 31.62854 | 40045 ft | 455 kts | 306° |
| 2026-05-05 16:50 | 38.64336 | 31.56328 | 40046 ft | 455 kts | 306° |
| 2026-05-05 16:50 | 38.68106 | 31.49806 | 40061 ft | 455 kts | 306° |
| 2026-05-05 16:51 | 38.71871 | 31.43301 | 40049 ft | 455 kts | 306° |
| 2026-05-05 16:51 | 38.75635 | 31.36787 | 40058 ft | 455 kts | 307° |
| 2026-05-05 16:52 | 38.79398 | 31.30259 | 40053 ft | 455 kts | 307° |
| 2026-05-05 16:52 | 38.83135 | 31.23763 | 40048 ft | 455 kts | 306° |
| 2026-05-05 16:53 | 38.86890 | 31.17223 | 40061 ft | 455 kts | 306° |
| 2026-05-05 16:53 | 38.90641 | 31.10677 | 40057 ft | 454 kts | 306° |
| 2026-05-05 16:54 | 38.93749 | 31.05243 | 40059 ft | 454 kts | 306° |
| 2026-05-05 16:54 | 38.97486 | 30.98695 | 40059 ft | 454 kts | 306° |
| 2026-05-05 16:55 | 39.01223 | 30.92136 | 40059 ft | 454 kts | 306° |
| 2026-05-05 16:55 | 39.04952 | 30.85576 | 40057 ft | 454 kts | 306° |
| 2026-05-05 16:56 | 39.08677 | 30.79011 | 40059 ft | 454 kts | 306° |
| 2026-05-05 16:56 | 39.12398 | 30.72439 | 40062 ft | 454 kts | 306° |
| 2026-05-05 16:57 | 39.16088 | 30.65908 | 40071 ft | 454 kts | 306° |
| 2026-05-05 16:57 | 39.19804 | 30.59317 | 40070 ft | 454 kts | 306° |
| 2026-05-05 16:58 | 39.23513 | 30.52725 | 40069 ft | 454 kts | 306° |
| 2026-05-05 16:58 | 39.27218 | 30.46127 | 40072 ft | 454 kts | 306° |
| 2026-05-05 16:59 | 39.30917 | 30.39526 | 40070 ft | 454 kts | 306° |
| 2026-05-05 16:59 | 39.34619 | 30.32906 | 40081 ft | 454 kts | 306° |
| 2026-05-05 17:00 | 39.38304 | 30.26305 | 39898 ft | 450 kts | 306° |
| 2026-05-05 17:00 | 39.40135 | 30.23017 | 39187 ft | 453 kts | 306° |
| 2026-05-05 17:00 | 39.41985 | 30.19694 | 38320 ft | 457 kts | 306° |
| 2026-05-05 17:01 | 39.43957 | 30.16470 | 37597 ft | 456 kts | 312° |
| 2026-05-05 17:01 | 39.46193 | 30.13650 | 36959 ft | 454 kts | 320° |
| 2026-05-05 17:01 | 39.48754 | 30.11259 | 36268 ft | 454 kts | 328° |
| 2026-05-05 17:01 | 39.51554 | 30.09365 | 35618 ft | 454 kts | 334° |
| 2026-05-05 17:02 | 39.54425 | 30.07667 | 35224 ft | 455 kts | 335° |
| 2026-05-05 17:02 | 39.57346 | 30.06032 | 35082 ft | 456 kts | 336° |
| 2026-05-05 17:02 | 39.63181 | 30.02840 | 34579 ft | 451 kts | 336° |
| 2026-05-05 17:03 | 39.66070 | 30.01253 | 33406 ft | 449 kts | 336° |
| 2026-05-05 17:03 | 39.68913 | 29.99679 | 32107 ft | 449 kts | 336° |
| 2026-05-05 17:03 | 39.71809 | 29.98060 | 31636 ft | 444 kts | 336° |
| 2026-05-05 17:03 | 39.74625 | 29.96482 | 31149 ft | 438 kts | 336° |
| 2026-05-05 17:04 | 39.77406 | 29.94924 | 30644 ft | 434 kts | 337° |
| 2026-05-05 17:04 | 39.80175 | 29.93371 | 30117 ft | 431 kts | 337° |
| 2026-05-05 17:04 | 39.82915 | 29.91828 | 29556 ft | 427 kts | 337° |
| 2026-05-05 17:04 | 39.85592 | 29.90322 | 29057 ft | 422 kts | 337° |
| 2026-05-05 17:05 | 39.88263 | 29.88818 | 28661 ft | 415 kts | 337° |
| 2026-05-05 17:05 | 39.90961 | 29.87506 | 28137 ft | 411 kts | 345° |
| 2026-05-05 17:05 | 39.93767 | 29.87012 | 27748 ft | 406 kts | 358° |
| 2026-05-05 17:05 | 39.96597 | 29.86956 | 27377 ft | 407 kts | 360° |
| 2026-05-05 17:06 | 39.99426 | 29.86958 | 26999 ft | 406 kts | 0° |
| 2026-05-05 17:06 | 40.02254 | 29.86964 | 26632 ft | 405 kts | 0° |
| 2026-05-05 17:06 | 40.05064 | 29.86913 | 26426 ft | 404 kts | 356° |
| 2026-05-05 17:06 | 40.07868 | 29.86598 | 26184 ft | 403 kts | 354° |
| 2026-05-05 17:07 | 40.10620 | 29.86213 | 25927 ft | 402 kts | 354° |
| 2026-05-05 17:07 | 40.13399 | 29.85803 | 25689 ft | 401 kts | 354° |
| 2026-05-05 17:07 | 40.16165 | 29.85388 | 25454 ft | 400 kts | 353° |
| 2026-05-05 17:07 | 40.18920 | 29.84968 | 25206 ft | 398 kts | 353° |
| 2026-05-05 17:08 | 40.21668 | 29.84545 | 24954 ft | 397 kts | 353° |
| 2026-05-05 17:08 | 40.24404 | 29.84124 | 24725 ft | 395 kts | 353° |
| 2026-05-05 17:08 | 40.27117 | 29.83708 | 24414 ft | 388 kts | 354° |
| 2026-05-05 17:08 | 40.29789 | 29.83301 | 23968 ft | 385 kts | 354° |
| 2026-05-05 17:09 | 40.32450 | 29.82894 | 23473 ft | 383 kts | 354° |
| 2026-05-05 17:09 | 40.35084 | 29.82491 | 22941 ft | 379 kts | 353° |
| 2026-05-05 17:09 | 40.37694 | 29.82089 | 22467 ft | 375 kts | 353° |
| 2026-05-05 17:09 | 40.40275 | 29.81690 | 21998 ft | 372 kts | 353° |
| 2026-05-05 17:10 | 40.42797 | 29.81302 | 21540 ft | 368 kts | 353° |
| 2026-05-05 17:10 | 40.45336 | 29.80910 | 21270 ft | 369 kts | 353° |
| 2026-05-05 17:10 | 40.47900 | 29.80514 | 21092 ft | 372 kts | 353° |
| 2026-05-05 17:10 | 40.50456 | 29.80124 | 20655 ft | 363 kts | 353° |
| 2026-05-05 17:11 | 40.52954 | 29.79738 | 19677 ft | 360 kts | 353° |
| 2026-05-05 17:11 | 40.55387 | 29.79360 | 19212 ft | 344 kts | 353° |
| 2026-05-05 17:11 | 40.57710 | 29.79000 | 18797 ft | 331 kts | 353° |
| 2026-05-05 17:11 | 40.60009 | 29.78643 | 18377 ft | 335 kts | 353° |
| 2026-05-05 17:12 | 40.62329 | 29.78282 | 17894 ft | 335 kts | 353° |
| 2026-05-05 17:12 | 40.64639 | 29.77923 | 17439 ft | 333 kts | 353° |
| 2026-05-05 17:12 | 40.66932 | 29.77566 | 17002 ft | 331 kts | 353° |
| 2026-05-05 17:12 | 40.69209 | 29.77212 | 16571 ft | 328 kts | 353° |
| 2026-05-05 17:13 | 40.71471 | 29.76860 | 16121 ft | 327 kts | 353° |
| 2026-05-05 17:13 | 40.73726 | 29.76508 | 15702 ft | 325 kts | 353° |
| 2026-05-05 17:13 | 40.75967 | 29.76159 | 15280 ft | 323 kts | 353° |
| 2026-05-05 17:13 | 40.78196 | 29.75811 | 14840 ft | 321 kts | 353° |
| 2026-05-05 17:14 | 40.80382 | 29.75470 | 14419 ft | 320 kts | 353° |
| 2026-05-05 17:14 | 40.82581 | 29.75078 | 13988 ft | 318 kts | 349° |
| 2026-05-05 17:14 | 40.84639 | 29.74070 | 13696 ft | 312 kts | 334° |
| 2026-05-05 17:14 | 40.86548 | 29.72602 | 13686 ft | 324 kts | 326° |
| 2026-05-05 17:15 | 40.88188 | 29.70525 | 13684 ft | 331 kts | 308° |
| 2026-05-05 17:15 | 40.89193 | 29.67780 | 13574 ft | 336 kts | 286° |
| 2026-05-05 17:15 | 40.89400 | 29.64710 | 13265 ft | 337 kts | 266° |
| 2026-05-05 17:15 | 40.88872 | 29.61702 | 12859 ft | 335 kts | 256° |
| 2026-05-05 17:16 | 40.88224 | 29.58748 | 12390 ft | 333 kts | 257° |
| 2026-05-05 17:16 | 40.87619 | 29.55802 | 11894 ft | 331 kts | 258° |
| 2026-05-05 17:16 | 40.87137 | 29.52873 | 11712 ft | 318 kts | 266° |
| 2026-05-05 17:16 | 40.87051 | 29.50024 | 11420 ft | 307 kts | 276° |
| 2026-05-05 17:17 | 40.87213 | 29.47161 | 11079 ft | 319 kts | 279° |
| 2026-05-05 17:17 | 40.87438 | 29.44271 | 10996 ft | 316 kts | 279° |
| 2026-05-05 17:17 | 40.87669 | 29.41438 | 10978 ft | 297 kts | 279° |
| 2026-05-05 17:17 | 40.87891 | 29.38792 | 10634 ft | 292 kts | 280° |
| 2026-05-05 17:18 | 40.88120 | 29.36138 | 10228 ft | 290 kts | 280° |
| 2026-05-05 17:18 | 40.88349 | 29.33504 | 9787 ft | 287 kts | 280° |
| 2026-05-05 17:18 | 40.88577 | 29.30895 | 9361 ft | 284 kts | 280° |
| 2026-05-05 17:18 | 40.88800 | 29.28330 | 8984 ft | 280 kts | 280° |
| 2026-05-05 17:19 | 40.89021 | 29.25792 | 8658 ft | 277 kts | 279° |
| 2026-05-05 17:19 | 40.89239 | 29.23264 | 8312 ft | 276 kts | 280° |
| 2026-05-05 17:19 | 40.89458 | 29.20748 | 7978 ft | 276 kts | 280° |
| 2026-05-05 17:19 | 40.89675 | 29.18237 | 7646 ft | 274 kts | 280° |
| 2026-05-05 17:20 | 40.89891 | 29.15736 | 7315 ft | 273 kts | 280° |
| 2026-05-05 17:20 | 40.90100 | 29.13285 | 7125 ft | 263 kts | 280° |
| 2026-05-05 17:20 | 40.90299 | 29.10942 | 6995 ft | 251 kts | 280° |
| 2026-05-05 17:20 | 40.90494 | 29.08715 | 6849 ft | 236 kts | 281° |
| 2026-05-05 17:21 | 40.91174 | 29.06810 | 6663 ft | 228 kts | 318° |
| 2026-05-05 17:21 | 40.92369 | 29.05462 | 6456 ft | 228 kts | 314° |
| 2026-05-05 17:21 | 40.93371 | 29.03727 | 6280 ft | 251 kts | 304° |
| 2026-05-05 17:22 | 40.94459 | 28.99153 | 5879 ft | 265 kts | 284° |
| 2026-05-05 17:22 | 40.94791 | 28.96752 | 5678 ft | 265 kts | 282° |
| 2026-05-05 17:22 | 40.95100 | 28.94357 | 5464 ft | 264 kts | 283° |
| 2026-05-05 17:22 | 40.95399 | 28.91966 | 5259 ft | 263 kts | 283° |
| 2026-05-05 17:23 | 40.95687 | 28.89620 | 5046 ft | 253 kts | 283° |
| 2026-05-05 17:23 | 40.95961 | 28.87361 | 4838 ft | 245 kts | 283° |
| 2026-05-05 17:23 | 40.96224 | 28.85186 | 4691 ft | 234 kts | 283° |
| 2026-05-05 17:23 | 40.96475 | 28.83108 | 4551 ft | 224 kts | 283° |
| 2026-05-05 17:24 | 40.96715 | 28.81111 | 4413 ft | 217 kts | 283° |
| 2026-05-05 17:24 | 40.96995 | 28.79149 | 4282 ft | 217 kts | 289° |
| 2026-05-05 17:24 | 40.97753 | 28.77501 | 4152 ft | 210 kts | 323° |
| 2026-05-05 17:24 | 40.99031 | 28.76628 | 4032 ft | 206 kts | 342° |
| 2026-05-05 17:25 | 41.00383 | 28.76247 | 3999 ft | 190 kts | 353° |
| 2026-05-05 17:25 | 41.01230 | 28.76155 | 3997 ft | 179 kts | 356° |
| 2026-05-05 17:25 | 41.02797 | 28.76115 | 3985 ft | 162 kts | 359° |
| 2026-05-05 17:25 | 41.03923 | 28.76101 | 3994 ft | 161 kts | 358° |
| 2026-05-05 17:26 | 41.05042 | 28.76082 | 3995 ft | 161 kts | 358° |
| 2026-05-05 17:26 | 41.06162 | 28.76059 | 3997 ft | 161 kts | 358° |
| 2026-05-05 17:26 | 41.07232 | 28.76035 | 3989 ft | 147 kts | 358° |
| 2026-05-05 17:26 | 41.08245 | 28.76012 | 3909 ft | 144 kts | 358° |
| 2026-05-05 17:27 | 41.09247 | 28.75990 | 3735 ft | 144 kts | 358° |
| 2026-05-05 17:27 | 41.10247 | 28.75972 | 3526 ft | 144 kts | 358° |
| 2026-05-05 17:27 | 41.11240 | 28.75954 | 3314 ft | 145 kts | 358° |
| 2026-05-05 17:27 | 41.12245 | 28.75935 | 3109 ft | 144 kts | 358° |
| 2026-05-05 17:28 | 41.13249 | 28.75916 | 2910 ft | 144 kts | 359° |
| 2026-05-05 17:28 | 41.14250 | 28.75897 | 2730 ft | 141 kts | 359° |
| 2026-05-05 17:28 | 41.15203 | 28.75879 | 2521 ft | 133 kts | 359° |
| 2026-05-05 17:28 | 41.16105 | 28.75861 | 2358 ft | 129 kts | 358° |
| 2026-05-05 17:29 | 41.17001 | 28.75843 | 2178 ft | 129 kts | 359° |
| 2026-05-05 17:29 | 41.17901 | 28.75827 | 2004 ft | 130 kts | 359° |
| 2026-05-05 17:29 | 41.18803 | 28.75810 | 1825 ft | 129 kts | 359° |
| 2026-05-05 17:29 | 41.19700 | 28.75792 | 1656 ft | 129 kts | 359° |
| 2026-05-05 17:30 | 41.20598 | 28.75776 | 1467 ft | 129 kts | 360° |
| 2026-05-05 17:30 | 41.21494 | 28.75762 | 1287 ft | 128 kts | 359° |
| 2026-05-05 17:30 | 41.22385 | 28.75732 | 1105 ft | 128 kts | 359° |
| 2026-05-05 17:30 | 41.23277 | 28.75711 | 938 ft | 128 kts | 0° |
| 2026-05-05 17:31 | 41.24175 | 28.75704 | 755 ft | 129 kts | 0° |
| 2026-05-05 17:31 | 41.25074 | 28.75699 | 587 ft | 130 kts | 0° |
| 2026-05-05 17:31 | 41.25971 | 28.75676 | 410 ft | 129 kts | 359° |
| 2026-05-05 17:31 | 41.26867 | 28.75660 | 314 ft | 126 kts | 0° |
| 2026-05-05 17:32 | 41.27579 | 28.75652 | 297 ft | 62 kts | 359° |
| 2026-05-05 17:32 | 41.27741 | 28.75651 | 289 ft | 1 kts | 359° |
| 2026-05-05 17:32 | 41.27781 | 28.75650 | 284 ft | 14 kts | 359° |
| 2026-05-05 17:32 | 41.27915 | 28.75643 | 277 ft | 26 kts | 351° |
| 2026-05-05 17:33 | 41.28083 | 28.75555 | 270 ft | 18 kts | 330° |
| 2026-05-05 17:33 | 41.28167 | 28.75432 | 267 ft | 17 kts | 271° |
| 2026-05-05 17:33 | 41.28117 | 28.75330 | 269 ft | 8 kts | 210° |
| 2026-05-05 17:33 | 41.28078 | 28.75333 | 271 ft | 6 kts | 173° |
| 2026-05-05 17:34 | 41.28036 | 28.75344 | 273 ft | 6 kts | 166° |
| 2026-05-05 17:34 | 41.27993 | 28.75352 | 275 ft | 6 kts | 178° |
| 2026-05-05 17:34 | 41.27952 | 28.75354 | 277 ft | 6 kts | 178° |
| 2026-05-05 17:34 | 41.27910 | 28.75356 | 280 ft | 7 kts | 178° |
| 2026-05-05 17:35 | 41.27856 | 28.75359 | 283 ft | 8 kts | 179° |
| 2026-05-05 17:35 | 41.27793 | 28.75360 | 292 ft | 10 kts | 180° |
| 2026-05-05 17:35 | 41.27719 | 28.75359 | 297 ft | 11 kts | 180° |
| 2026-05-05 17:35 | 41.27636 | 28.75359 | 297 ft | 13 kts | 180° |
| 2026-05-05 17:36 | 41.27539 | 28.75360 | 304 ft | 15 kts | 178° |
| 2026-05-05 17:36 | 41.27429 | 28.75363 | 307 ft | 17 kts | 179° |
| 2026-05-05 17:36 | 41.27301 | 28.75365 | 309 ft | 20 kts | 179° |
| 2026-05-05 17:36 | 41.27164 | 28.75367 | 313 ft | 19 kts | 180° |
| 2026-05-05 17:37 | 41.27071 | 28.75281 | 314 ft | 18 kts | 261° |
| 2026-05-05 17:37 | 41.27066 | 28.75175 | 314 ft | 16 kts | 268° |
| 2026-05-05 17:37 | 41.27063 | 28.74968 | 314 ft | 19 kts | 269° |
| 2026-05-05 17:37 | 41.27060 | 28.74783 | 316 ft | 21 kts | 269° |
| 2026-05-05 17:38 | 41.27057 | 28.74594 | 316 ft | 11 kts | 269° |
| 2026-05-05 17:38 | 41.27052 | 28.74510 | 316 ft | 8 kts | 257° |
| 2026-05-05 17:38 | 41.27034 | 28.74472 | 316 ft | 1 kts | 214° |
| 2026-05-05 17:38 | 41.27032 | 28.74471 | 317 ft | 0 kts | 205° |
| 2026-05-05 17:40 | 41.27028 | 28.74469 | 315 ft | 3 kts | 203° |
| 2026-05-05 17:41 | 41.26980 | 28.74461 | 316 ft | 11 kts | 179° |
| 2026-05-05 17:41 | 41.26879 | 28.74460 | 317 ft | 17 kts | 180° |
| 2026-05-05 17:41 | 41.26761 | 28.74461 | 317 ft | 18 kts | 179° |
| 2026-05-05 17:41 | 41.26639 | 28.74463 | 317 ft | 15 kts | 179° |
| 2026-05-05 17:42 | 41.26542 | 28.74465 | 317 ft | 12 kts | 179° |
| 2026-05-05 17:42 | 41.26483 | 28.74433 | 319 ft | 5 kts | 244° |
| 2026-05-05 17:42 | 41.26477 | 28.74392 | 318 ft | 2 kts | 264° |
| 2026-05-05 17:42 | 41.26475 | 28.74374 | 319 ft | 0 kts | 267° |
| 2026-05-05 17:43 | 41.26475 | 28.74371 | 319 ft | 1 kts | 267° |
| 2026-05-05 17:43 | 41.26475 | 28.74354 | 317 ft | 2 kts | 267° |
| 2026-05-05 17:43 | 41.26474 | 28.74349 | 320 ft | 1 kts | 267° |
| 2026-05-05 17:43 | 41.26474 | 28.74348 | 320 ft | 0 kts | 267° |